<?xml version="1.0" encoding="UTF-8" standalone="no" ?>
<gpx xmlns="http://www.topografix.com/GPX/1/1" xmlns:xsi="http://www.w3.org/2001/XMLSchema-instance" xsi:schemaLocation="http://www.topografix.com/GPX/1/1 http://www.topografix.com/GPX/1/1/gpx.xsd" version="1.1" creator="VisuGPX - https://www.visugpx.com">
  <metadata>
    <name>CARREFOUR DE LUYNES 6</name>
  </metadata>
  <trk>
    <name><![CDATA[CARREFOUR DE LUYNES 6]]></name>
    <trkseg>
      <trkpt lat="48.59186" lon="1.96611">
        <ele>81.37</ele>
        <time>2017-02-21T08:18:02Z</time>
      </trkpt>
      <trkpt lat="48.59188" lon="1.9661">
        <ele>80.89</ele>
        <time>2017-02-21T08:18:03Z</time>
      </trkpt>
      <trkpt lat="48.59192" lon="1.96603">
        <ele>84.73</ele>
        <time>2017-02-21T08:18:10Z</time>
      </trkpt>
      <trkpt lat="48.59195" lon="1.96603">
        <ele>88.1</ele>
        <time>2017-02-21T08:18:15Z</time>
      </trkpt>
      <trkpt lat="48.59198" lon="1.96603">
        <ele>90.98</ele>
        <time>2017-02-21T08:18:22Z</time>
      </trkpt>
      <trkpt lat="48.59197" lon="1.96605">
        <ele>92.42</ele>
        <time>2017-02-21T08:18:25Z</time>
      </trkpt>
      <trkpt lat="48.59187" lon="1.96605">
        <ele>95.79</ele>
        <time>2017-02-21T08:18:32Z</time>
      </trkpt>
      <trkpt lat="48.59185" lon="1.96607">
        <ele>97.23</ele>
        <time>2017-02-21T08:18:35Z</time>
      </trkpt>
      <trkpt lat="48.59184" lon="1.96609">
        <ele>100.6</ele>
        <time>2017-02-21T08:18:41Z</time>
      </trkpt>
      <trkpt lat="48.59184" lon="1.96608">
        <ele>100.6</ele>
        <time>2017-02-21T08:18:42Z</time>
      </trkpt>
      <trkpt lat="48.59181" lon="1.966">
        <ele>103.96</ele>
        <time>2017-02-21T08:18:52Z</time>
      </trkpt>
      <trkpt lat="48.59176" lon="1.96601">
        <ele>107.32</ele>
        <time>2017-02-21T08:18:59Z</time>
      </trkpt>
      <trkpt lat="48.59174" lon="1.96592">
        <ele>110.69</ele>
        <time>2017-02-21T08:19:07Z</time>
      </trkpt>
      <trkpt lat="48.59175" lon="1.96588">
        <ele>114.05</ele>
        <time>2017-02-21T08:19:13Z</time>
      </trkpt>
      <trkpt lat="48.59175" lon="1.96583">
        <ele>116.46</ele>
        <time>2017-02-21T08:19:19Z</time>
      </trkpt>
      <trkpt lat="48.59174" lon="1.96586">
        <ele>119.82</ele>
        <time>2017-02-21T08:19:23Z</time>
      </trkpt>
      <trkpt lat="48.59172" lon="1.966">
        <ele>122.22</ele>
        <time>2017-02-21T08:19:37Z</time>
      </trkpt>
      <trkpt lat="48.59172" lon="1.96606">
        <ele>125.11</ele>
        <time>2017-02-21T08:19:52Z</time>
      </trkpt>
      <trkpt lat="48.59173" lon="1.96607">
        <ele>127.03</ele>
        <time>2017-02-21T08:20:09Z</time>
      </trkpt>
      <trkpt lat="48.59175" lon="1.96608">
        <ele>126.55</ele>
        <time>2017-02-21T08:20:22Z</time>
      </trkpt>
      <trkpt lat="48.59177" lon="1.96609">
        <ele>126.55</ele>
        <time>2017-02-21T08:20:42Z</time>
      </trkpt>
      <trkpt lat="48.59178" lon="1.9661">
        <ele>126.55</ele>
        <time>2017-02-21T08:20:58Z</time>
      </trkpt>
      <trkpt lat="48.59179" lon="1.9661">
        <ele>126.55</ele>
        <time>2017-02-21T08:21:08Z</time>
      </trkpt>
      <trkpt lat="48.59179" lon="1.96611">
        <ele>126.55</ele>
        <time>2017-02-21T08:21:35Z</time>
      </trkpt>
      <trkpt lat="48.5918" lon="1.96611">
        <ele>126.55</ele>
        <time>2017-02-21T08:21:54Z</time>
      </trkpt>
      <trkpt lat="48.5918" lon="1.9661">
        <ele>126.55</ele>
        <time>2017-02-21T08:22:07Z</time>
      </trkpt>
      <trkpt lat="48.5918" lon="1.96611">
        <ele>126.55</ele>
        <time>2017-02-21T08:22:18Z</time>
      </trkpt>
      <trkpt lat="48.59178" lon="1.96614">
        <ele>127.03</ele>
        <time>2017-02-21T08:22:36Z</time>
      </trkpt>
      <trkpt lat="48.59177" lon="1.96614">
        <ele>127.51</ele>
        <time>2017-02-21T08:22:52Z</time>
      </trkpt>
      <trkpt lat="48.59177" lon="1.96613">
        <ele>126.55</ele>
        <time>2017-02-21T08:23:06Z</time>
      </trkpt>
      <trkpt lat="48.59178" lon="1.96614">
        <ele>126.55</ele>
        <time>2017-02-21T08:23:25Z</time>
      </trkpt>
      <trkpt lat="48.59178" lon="1.96613">
        <ele>123.19</ele>
        <time>2017-02-21T08:23:27Z</time>
      </trkpt>
      <trkpt lat="48.59178" lon="1.96614">
        <ele>129.43</ele>
        <time>2017-02-21T08:23:28Z</time>
      </trkpt>
      <trkpt lat="48.59178" lon="1.96613">
        <ele>121.74</ele>
        <time>2017-02-21T08:23:30Z</time>
      </trkpt>
      <trkpt lat="48.59178" lon="1.96613">
        <ele>129.43</ele>
        <time>2017-02-21T08:23:31Z</time>
      </trkpt>
      <trkpt lat="48.59178" lon="1.96613">
        <ele>122.22</ele>
        <time>2017-02-21T08:23:32Z</time>
      </trkpt>
      <trkpt lat="48.59178" lon="1.96613">
        <ele>130.88</ele>
        <time>2017-02-21T08:23:33Z</time>
      </trkpt>
      <trkpt lat="48.59178" lon="1.96613">
        <ele>121.74</ele>
        <time>2017-02-21T08:23:34Z</time>
      </trkpt>
      <trkpt lat="48.59178" lon="1.96613">
        <ele>133.76</ele>
        <time>2017-02-21T08:23:35Z</time>
      </trkpt>
      <trkpt lat="48.59178" lon="1.96613">
        <ele>127.03</ele>
        <time>2017-02-21T08:23:36Z</time>
      </trkpt>
      <trkpt lat="48.59178" lon="1.96613">
        <ele>124.15</ele>
        <time>2017-02-21T08:23:50Z</time>
      </trkpt>
      <trkpt lat="48.59178" lon="1.96613">
        <ele>127.99</ele>
        <time>2017-02-21T08:23:51Z</time>
      </trkpt>
      <trkpt lat="48.59179" lon="1.96613">
        <ele>123.19</ele>
        <time>2017-02-21T08:24:00Z</time>
      </trkpt>
      <trkpt lat="48.59179" lon="1.96613">
        <ele>128.47</ele>
        <time>2017-02-21T08:24:01Z</time>
      </trkpt>
      <trkpt lat="48.59179" lon="1.96612">
        <ele>132.8</ele>
        <time>2017-02-21T08:24:03Z</time>
      </trkpt>
      <trkpt lat="48.59179" lon="1.96612">
        <ele>126.07</ele>
        <time>2017-02-21T08:24:04Z</time>
      </trkpt>
      <trkpt lat="48.59179" lon="1.96612">
        <ele>117.42</ele>
        <time>2017-02-21T08:24:05Z</time>
      </trkpt>
      <trkpt lat="48.59179" lon="1.96612">
        <ele>134.24</ele>
        <time>2017-02-21T08:24:06Z</time>
      </trkpt>
      <trkpt lat="48.59179" lon="1.96612">
        <ele>126.07</ele>
        <time>2017-02-21T08:24:07Z</time>
      </trkpt>
      <trkpt lat="48.59179" lon="1.96612">
        <ele>130.88</ele>
        <time>2017-02-21T08:24:09Z</time>
      </trkpt>
      <trkpt lat="48.59179" lon="1.96612">
        <ele>126.07</ele>
        <time>2017-02-21T08:24:10Z</time>
      </trkpt>
      <trkpt lat="48.59177" lon="1.96613">
        <ele>126.55</ele>
        <time>2017-02-21T08:24:23Z</time>
      </trkpt>
      <trkpt lat="48.59176" lon="1.96612">
        <ele>126.55</ele>
        <time>2017-02-21T08:24:35Z</time>
      </trkpt>
      <trkpt lat="48.59177" lon="1.96613">
        <ele>126.55</ele>
        <time>2017-02-21T08:25:00Z</time>
      </trkpt>
      <trkpt lat="48.59178" lon="1.96611">
        <ele>126.55</ele>
        <time>2017-02-21T08:25:32Z</time>
      </trkpt>
      <trkpt lat="48.59177" lon="1.9661">
        <ele>126.07</ele>
        <time>2017-02-21T08:25:47Z</time>
      </trkpt>
      <trkpt lat="48.59179" lon="1.9661">
        <ele>126.55</ele>
        <time>2017-02-21T08:26:06Z</time>
      </trkpt>
      <trkpt lat="48.5918" lon="1.9661">
        <ele>126.07</ele>
        <time>2017-02-21T08:26:25Z</time>
      </trkpt>
      <trkpt lat="48.59179" lon="1.9661">
        <ele>126.07</ele>
        <time>2017-02-21T08:26:45Z</time>
      </trkpt>
      <trkpt lat="48.59179" lon="1.96609">
        <ele>126.07</ele>
        <time>2017-02-21T08:27:02Z</time>
      </trkpt>
      <trkpt lat="48.59178" lon="1.96608">
        <ele>126.07</ele>
        <time>2017-02-21T08:27:22Z</time>
      </trkpt>
      <trkpt lat="48.5917" lon="1.96608">
        <ele>126.07</ele>
        <time>2017-02-21T08:27:36Z</time>
      </trkpt>
      <trkpt lat="48.59163" lon="1.96602">
        <ele>125.11</ele>
        <time>2017-02-21T08:27:48Z</time>
      </trkpt>
      <trkpt lat="48.5916" lon="1.96598">
        <ele>124.63</ele>
        <time>2017-02-21T08:27:52Z</time>
      </trkpt>
      <trkpt lat="48.59158" lon="1.96596">
        <ele>124.63</ele>
        <time>2017-02-21T08:27:54Z</time>
      </trkpt>
      <trkpt lat="48.59154" lon="1.96599">
        <ele>124.63</ele>
        <time>2017-02-21T08:28:06Z</time>
      </trkpt>
      <trkpt lat="48.59156" lon="1.96608">
        <ele>125.11</ele>
        <time>2017-02-21T08:28:09Z</time>
      </trkpt>
      <trkpt lat="48.59158" lon="1.96641">
        <ele>125.11</ele>
        <time>2017-02-21T08:28:23Z</time>
      </trkpt>
      <trkpt lat="48.59158" lon="1.96671">
        <ele>124.63</ele>
        <time>2017-02-21T08:28:37Z</time>
      </trkpt>
      <trkpt lat="48.59157" lon="1.96683">
        <ele>124.63</ele>
        <time>2017-02-21T08:28:45Z</time>
      </trkpt>
      <trkpt lat="48.59158" lon="1.96708">
        <ele>124.15</ele>
        <time>2017-02-21T08:28:56Z</time>
      </trkpt>
      <trkpt lat="48.59157" lon="1.96715">
        <ele>124.63</ele>
        <time>2017-02-21T08:28:59Z</time>
      </trkpt>
      <trkpt lat="48.59151" lon="1.9673">
        <ele>124.15</ele>
        <time>2017-02-21T08:29:10Z</time>
      </trkpt>
      <trkpt lat="48.59148" lon="1.96745">
        <ele>123.67</ele>
        <time>2017-02-21T08:29:14Z</time>
      </trkpt>
      <trkpt lat="48.59147" lon="1.96753">
        <ele>123.67</ele>
        <time>2017-02-21T08:29:16Z</time>
      </trkpt>
      <trkpt lat="48.5914" lon="1.96767">
        <ele>123.19</ele>
        <time>2017-02-21T08:29:26Z</time>
      </trkpt>
      <trkpt lat="48.59132" lon="1.96785">
        <ele>122.71</ele>
        <time>2017-02-21T08:29:33Z</time>
      </trkpt>
      <trkpt lat="48.59129" lon="1.96799">
        <ele>121.74</ele>
        <time>2017-02-21T08:29:44Z</time>
      </trkpt>
      <trkpt lat="48.59126" lon="1.96814">
        <ele>121.74</ele>
        <time>2017-02-21T08:29:55Z</time>
      </trkpt>
      <trkpt lat="48.59125" lon="1.96816">
        <ele>122.22</ele>
        <time>2017-02-21T08:29:56Z</time>
      </trkpt>
      <trkpt lat="48.59118" lon="1.96843">
        <ele>121.26</ele>
        <time>2017-02-21T08:30:10Z</time>
      </trkpt>
      <trkpt lat="48.59111" lon="1.9687">
        <ele>120.78</ele>
        <time>2017-02-21T08:30:23Z</time>
      </trkpt>
      <trkpt lat="48.59106" lon="1.96889">
        <ele>120.3</ele>
        <time>2017-02-21T08:30:37Z</time>
      </trkpt>
      <trkpt lat="48.59101" lon="1.96903">
        <ele>119.82</ele>
        <time>2017-02-21T08:30:47Z</time>
      </trkpt>
      <trkpt lat="48.59092" lon="1.96937">
        <ele>119.82</ele>
        <time>2017-02-21T08:31:00Z</time>
      </trkpt>
      <trkpt lat="48.59087" lon="1.96954">
        <ele>119.82</ele>
        <time>2017-02-21T08:31:08Z</time>
      </trkpt>
      <trkpt lat="48.59079" lon="1.96978">
        <ele>120.3</ele>
        <time>2017-02-21T08:31:20Z</time>
      </trkpt>
      <trkpt lat="48.59074" lon="1.97005">
        <ele>119.82</ele>
        <time>2017-02-21T08:31:32Z</time>
      </trkpt>
      <trkpt lat="48.59071" lon="1.9702">
        <ele>118.86</ele>
        <time>2017-02-21T08:31:43Z</time>
      </trkpt>
      <trkpt lat="48.59069" lon="1.97048">
        <ele>118.38</ele>
        <time>2017-02-21T08:31:56Z</time>
      </trkpt>
      <trkpt lat="48.59066" lon="1.97063">
        <ele>117.9</ele>
        <time>2017-02-21T08:32:03Z</time>
      </trkpt>
      <trkpt lat="48.59062" lon="1.97077">
        <ele>117.42</ele>
        <time>2017-02-21T08:32:10Z</time>
      </trkpt>
      <trkpt lat="48.59056" lon="1.97094">
        <ele>117.9</ele>
        <time>2017-02-21T08:32:16Z</time>
      </trkpt>
      <trkpt lat="48.59055" lon="1.97099">
        <ele>117.9</ele>
        <time>2017-02-21T08:32:18Z</time>
      </trkpt>
      <trkpt lat="48.59049" lon="1.97127">
        <ele>117.42</ele>
        <time>2017-02-21T08:32:27Z</time>
      </trkpt>
      <trkpt lat="48.59043" lon="1.97165">
        <ele>116.94</ele>
        <time>2017-02-21T08:32:42Z</time>
      </trkpt>
      <trkpt lat="48.59043" lon="1.97166">
        <ele>116.94</ele>
        <time>2017-02-21T08:32:44Z</time>
      </trkpt>
      <trkpt lat="48.59039" lon="1.9719">
        <ele>116.94</ele>
        <time>2017-02-21T08:32:55Z</time>
      </trkpt>
      <trkpt lat="48.59034" lon="1.97212">
        <ele>115.98</ele>
        <time>2017-02-21T08:33:06Z</time>
      </trkpt>
      <trkpt lat="48.59033" lon="1.97256">
        <ele>116.94</ele>
        <time>2017-02-21T08:33:20Z</time>
      </trkpt>
      <trkpt lat="48.59048" lon="1.97272">
        <ele>117.42</ele>
        <time>2017-02-21T08:33:35Z</time>
      </trkpt>
      <trkpt lat="48.59058" lon="1.97277">
        <ele>116.94</ele>
        <time>2017-02-21T08:33:41Z</time>
      </trkpt>
      <trkpt lat="48.59063" lon="1.97281">
        <ele>117.42</ele>
        <time>2017-02-21T08:33:44Z</time>
      </trkpt>
      <trkpt lat="48.59077" lon="1.973">
        <ele>118.38</ele>
        <time>2017-02-21T08:33:59Z</time>
      </trkpt>
      <trkpt lat="48.59091" lon="1.97308">
        <ele>118.86</ele>
        <time>2017-02-21T08:34:06Z</time>
      </trkpt>
      <trkpt lat="48.59109" lon="1.97309">
        <ele>119.34</ele>
        <time>2017-02-21T08:34:20Z</time>
      </trkpt>
      <trkpt lat="48.59119" lon="1.97298">
        <ele>118.86</ele>
        <time>2017-02-21T08:34:29Z</time>
      </trkpt>
      <trkpt lat="48.59126" lon="1.97292">
        <ele>119.82</ele>
        <time>2017-02-21T08:34:37Z</time>
      </trkpt>
      <trkpt lat="48.5914" lon="1.97263">
        <ele>119.82</ele>
        <time>2017-02-21T08:34:52Z</time>
      </trkpt>
      <trkpt lat="48.59145" lon="1.97252">
        <ele>119.82</ele>
        <time>2017-02-21T08:34:58Z</time>
      </trkpt>
      <trkpt lat="48.59155" lon="1.97235">
        <ele>119.82</ele>
        <time>2017-02-21T08:35:06Z</time>
      </trkpt>
      <trkpt lat="48.59163" lon="1.97205">
        <ele>120.3</ele>
        <time>2017-02-21T08:35:21Z</time>
      </trkpt>
      <trkpt lat="48.59168" lon="1.97189">
        <ele>120.3</ele>
        <time>2017-02-21T08:35:26Z</time>
      </trkpt>
      <trkpt lat="48.59182" lon="1.97173">
        <ele>122.71</ele>
        <time>2017-02-21T08:35:40Z</time>
      </trkpt>
      <trkpt lat="48.59192" lon="1.97141">
        <ele>122.71</ele>
        <time>2017-02-21T08:35:53Z</time>
      </trkpt>
      <trkpt lat="48.59203" lon="1.97117">
        <ele>124.15</ele>
        <time>2017-02-21T08:36:06Z</time>
      </trkpt>
      <trkpt lat="48.59214" lon="1.97098">
        <ele>124.15</ele>
        <time>2017-02-21T08:36:18Z</time>
      </trkpt>
      <trkpt lat="48.59215" lon="1.9709">
        <ele>124.15</ele>
        <time>2017-02-21T08:36:21Z</time>
      </trkpt>
      <trkpt lat="48.59218" lon="1.97084">
        <ele>124.15</ele>
        <time>2017-02-21T08:36:25Z</time>
      </trkpt>
      <trkpt lat="48.59228" lon="1.97064">
        <ele>125.11</ele>
        <time>2017-02-21T08:36:36Z</time>
      </trkpt>
      <trkpt lat="48.59231" lon="1.97059">
        <ele>125.11</ele>
        <time>2017-02-21T08:36:39Z</time>
      </trkpt>
      <trkpt lat="48.5924" lon="1.97051">
        <ele>125.11</ele>
        <time>2017-02-21T08:36:46Z</time>
      </trkpt>
      <trkpt lat="48.59254" lon="1.97024">
        <ele>125.59</ele>
        <time>2017-02-21T08:37:01Z</time>
      </trkpt>
      <trkpt lat="48.5926" lon="1.97015">
        <ele>125.59</ele>
        <time>2017-02-21T08:37:05Z</time>
      </trkpt>
      <trkpt lat="48.59269" lon="1.96976">
        <ele>127.03</ele>
        <time>2017-02-21T08:37:20Z</time>
      </trkpt>
      <trkpt lat="48.59282" lon="1.96957">
        <ele>129.92</ele>
        <time>2017-02-21T08:37:33Z</time>
      </trkpt>
      <trkpt lat="48.59292" lon="1.96946">
        <ele>131.36</ele>
        <time>2017-02-21T08:37:41Z</time>
      </trkpt>
      <trkpt lat="48.59295" lon="1.96943">
        <ele>132.8</ele>
        <time>2017-02-21T08:37:44Z</time>
      </trkpt>
      <trkpt lat="48.59301" lon="1.96916">
        <ele>133.76</ele>
        <time>2017-02-21T08:37:57Z</time>
      </trkpt>
      <trkpt lat="48.59305" lon="1.96909">
        <ele>134.24</ele>
        <time>2017-02-21T08:38:01Z</time>
      </trkpt>
      <trkpt lat="48.59315" lon="1.96883">
        <ele>137.61</ele>
        <time>2017-02-21T08:38:13Z</time>
      </trkpt>
      <trkpt lat="48.59315" lon="1.96878">
        <ele>137.61</ele>
        <time>2017-02-21T08:38:15Z</time>
      </trkpt>
      <trkpt lat="48.59318" lon="1.96875">
        <ele>139.05</ele>
        <time>2017-02-21T08:38:18Z</time>
      </trkpt>
      <trkpt lat="48.5932" lon="1.96866">
        <ele>140.01</ele>
        <time>2017-02-21T08:38:23Z</time>
      </trkpt>
      <trkpt lat="48.59323" lon="1.96854">
        <ele>140.49</ele>
        <time>2017-02-21T08:38:27Z</time>
      </trkpt>
      <trkpt lat="48.59332" lon="1.96835">
        <ele>141.93</ele>
        <time>2017-02-21T08:38:34Z</time>
      </trkpt>
      <trkpt lat="48.59342" lon="1.96815">
        <ele>144.82</ele>
        <time>2017-02-21T08:38:48Z</time>
      </trkpt>
      <trkpt lat="48.59343" lon="1.96813">
        <ele>144.82</ele>
        <time>2017-02-21T08:38:50Z</time>
      </trkpt>
      <trkpt lat="48.59355" lon="1.96789">
        <ele>146.26</ele>
        <time>2017-02-21T08:39:03Z</time>
      </trkpt>
      <trkpt lat="48.59367" lon="1.96765">
        <ele>146.74</ele>
        <time>2017-02-21T08:39:15Z</time>
      </trkpt>
      <trkpt lat="48.59378" lon="1.96746">
        <ele>146.26</ele>
        <time>2017-02-21T08:39:26Z</time>
      </trkpt>
      <trkpt lat="48.59381" lon="1.96739">
        <ele>145.78</ele>
        <time>2017-02-21T08:39:30Z</time>
      </trkpt>
      <trkpt lat="48.59383" lon="1.9673">
        <ele>146.26</ele>
        <time>2017-02-21T08:39:34Z</time>
      </trkpt>
      <trkpt lat="48.59391" lon="1.96717">
        <ele>145.3</ele>
        <time>2017-02-21T08:39:42Z</time>
      </trkpt>
      <trkpt lat="48.59393" lon="1.96715">
        <ele>145.3</ele>
        <time>2017-02-21T08:39:44Z</time>
      </trkpt>
      <trkpt lat="48.59404" lon="1.96692">
        <ele>145.3</ele>
        <time>2017-02-21T08:39:52Z</time>
      </trkpt>
      <trkpt lat="48.59417" lon="1.96664">
        <ele>145.3</ele>
        <time>2017-02-21T08:40:06Z</time>
      </trkpt>
      <trkpt lat="48.59426" lon="1.9664">
        <ele>144.82</ele>
        <time>2017-02-21T08:40:22Z</time>
      </trkpt>
      <trkpt lat="48.59433" lon="1.96616">
        <ele>145.3</ele>
        <time>2017-02-21T08:40:34Z</time>
      </trkpt>
      <trkpt lat="48.59436" lon="1.96616">
        <ele>144.82</ele>
        <time>2017-02-21T08:40:53Z</time>
      </trkpt>
      <trkpt lat="48.59435" lon="1.96617">
        <ele>145.3</ele>
        <time>2017-02-21T08:41:11Z</time>
      </trkpt>
      <trkpt lat="48.59435" lon="1.96617">
        <ele>145.3</ele>
        <time>2017-02-21T08:41:29Z</time>
      </trkpt>
      <trkpt lat="48.59436" lon="1.96619">
        <ele>144.82</ele>
        <time>2017-02-21T08:41:57Z</time>
      </trkpt>
      <trkpt lat="48.59436" lon="1.96619">
        <ele>144.82</ele>
        <time>2017-02-21T08:42:21Z</time>
      </trkpt>
      <trkpt lat="48.59438" lon="1.96615">
        <ele>145.3</ele>
        <time>2017-02-21T08:42:33Z</time>
      </trkpt>
      <trkpt lat="48.59439" lon="1.96613">
        <ele>145.3</ele>
        <time>2017-02-21T08:42:35Z</time>
      </trkpt>
      <trkpt lat="48.59442" lon="1.9661">
        <ele>144.82</ele>
        <time>2017-02-21T08:42:37Z</time>
      </trkpt>
      <trkpt lat="48.59446" lon="1.96604">
        <ele>144.34</ele>
        <time>2017-02-21T08:42:41Z</time>
      </trkpt>
      <trkpt lat="48.59452" lon="1.96592">
        <ele>144.34</ele>
        <time>2017-02-21T08:42:49Z</time>
      </trkpt>
      <trkpt lat="48.59466" lon="1.96569">
        <ele>144.34</ele>
        <time>2017-02-21T08:43:00Z</time>
      </trkpt>
      <trkpt lat="48.59476" lon="1.96547">
        <ele>144.82</ele>
        <time>2017-02-21T08:43:13Z</time>
      </trkpt>
      <trkpt lat="48.59489" lon="1.96515">
        <ele>146.74</ele>
        <time>2017-02-21T08:43:28Z</time>
      </trkpt>
      <trkpt lat="48.59496" lon="1.96488">
        <ele>148.66</ele>
        <time>2017-02-21T08:43:39Z</time>
      </trkpt>
      <trkpt lat="48.59506" lon="1.96467">
        <ele>149.14</ele>
        <time>2017-02-21T08:43:51Z</time>
      </trkpt>
      <trkpt lat="48.59517" lon="1.96447">
        <ele>150.1</ele>
        <time>2017-02-21T08:44:07Z</time>
      </trkpt>
      <trkpt lat="48.59524" lon="1.96434">
        <ele>152.03</ele>
        <time>2017-02-21T08:44:15Z</time>
      </trkpt>
      <trkpt lat="48.59525" lon="1.96431">
        <ele>152.99</ele>
        <time>2017-02-21T08:44:17Z</time>
      </trkpt>
      <trkpt lat="48.5954" lon="1.96408">
        <ele>153.47</ele>
        <time>2017-02-21T08:44:32Z</time>
      </trkpt>
      <trkpt lat="48.5955" lon="1.96381">
        <ele>154.91</ele>
        <time>2017-02-21T08:44:45Z</time>
      </trkpt>
      <trkpt lat="48.59551" lon="1.96372">
        <ele>154.91</ele>
        <time>2017-02-21T08:44:49Z</time>
      </trkpt>
      <trkpt lat="48.59556" lon="1.96368">
        <ele>155.39</ele>
        <time>2017-02-21T08:44:53Z</time>
      </trkpt>
      <trkpt lat="48.59567" lon="1.96345">
        <ele>155.87</ele>
        <time>2017-02-21T08:45:06Z</time>
      </trkpt>
      <trkpt lat="48.59581" lon="1.96316">
        <ele>156.83</ele>
        <time>2017-02-21T08:45:18Z</time>
      </trkpt>
      <trkpt lat="48.59583" lon="1.96309">
        <ele>156.35</ele>
        <time>2017-02-21T08:45:23Z</time>
      </trkpt>
      <trkpt lat="48.59586" lon="1.96304">
        <ele>155.87</ele>
        <time>2017-02-21T08:45:26Z</time>
      </trkpt>
      <trkpt lat="48.59601" lon="1.96275">
        <ele>153.95</ele>
        <time>2017-02-21T08:45:40Z</time>
      </trkpt>
      <trkpt lat="48.59605" lon="1.96265">
        <ele>152.51</ele>
        <time>2017-02-21T08:45:47Z</time>
      </trkpt>
      <trkpt lat="48.59608" lon="1.96261">
        <ele>152.03</ele>
        <time>2017-02-21T08:45:51Z</time>
      </trkpt>
      <trkpt lat="48.59614" lon="1.96255">
        <ele>151.06</ele>
        <time>2017-02-21T08:45:55Z</time>
      </trkpt>
      <trkpt lat="48.59618" lon="1.9625">
        <ele>150.58</ele>
        <time>2017-02-21T08:45:58Z</time>
      </trkpt>
      <trkpt lat="48.59622" lon="1.96228">
        <ele>148.66</ele>
        <time>2017-02-21T08:46:06Z</time>
      </trkpt>
      <trkpt lat="48.59627" lon="1.96206">
        <ele>145.3</ele>
        <time>2017-02-21T08:46:16Z</time>
      </trkpt>
      <trkpt lat="48.5964" lon="1.96179">
        <ele>141.93</ele>
        <time>2017-02-21T08:46:30Z</time>
      </trkpt>
      <trkpt lat="48.59641" lon="1.96176">
        <ele>141.93</ele>
        <time>2017-02-21T08:46:32Z</time>
      </trkpt>
      <trkpt lat="48.59651" lon="1.96155">
        <ele>138.57</ele>
        <time>2017-02-21T08:46:45Z</time>
      </trkpt>
      <trkpt lat="48.5966" lon="1.96127">
        <ele>137.13</ele>
        <time>2017-02-21T08:46:58Z</time>
      </trkpt>
      <trkpt lat="48.59673" lon="1.96098">
        <ele>134.72</ele>
        <time>2017-02-21T08:47:12Z</time>
      </trkpt>
      <trkpt lat="48.59686" lon="1.96076">
        <ele>132.32</ele>
        <time>2017-02-21T08:47:24Z</time>
      </trkpt>
      <trkpt lat="48.59695" lon="1.96055">
        <ele>130.4</ele>
        <time>2017-02-21T08:47:34Z</time>
      </trkpt>
      <trkpt lat="48.59702" lon="1.96036">
        <ele>129.92</ele>
        <time>2017-02-21T08:47:42Z</time>
      </trkpt>
      <trkpt lat="48.59707" lon="1.96034">
        <ele>129.92</ele>
        <time>2017-02-21T08:47:45Z</time>
      </trkpt>
      <trkpt lat="48.59709" lon="1.9603">
        <ele>129.43</ele>
        <time>2017-02-21T08:47:47Z</time>
      </trkpt>
      <trkpt lat="48.59721" lon="1.96014">
        <ele>128.95</ele>
        <time>2017-02-21T08:47:56Z</time>
      </trkpt>
      <trkpt lat="48.59732" lon="1.9599">
        <ele>129.43</ele>
        <time>2017-02-21T08:48:08Z</time>
      </trkpt>
      <trkpt lat="48.59734" lon="1.95981">
        <ele>128.47</ele>
        <time>2017-02-21T08:48:13Z</time>
      </trkpt>
      <trkpt lat="48.59736" lon="1.95974">
        <ele>127.99</ele>
        <time>2017-02-21T08:48:16Z</time>
      </trkpt>
      <trkpt lat="48.59743" lon="1.95957">
        <ele>127.51</ele>
        <time>2017-02-21T08:48:23Z</time>
      </trkpt>
      <trkpt lat="48.59748" lon="1.95947">
        <ele>127.51</ele>
        <time>2017-02-21T08:48:28Z</time>
      </trkpt>
      <trkpt lat="48.59759" lon="1.9593">
        <ele>126.07</ele>
        <time>2017-02-21T08:48:43Z</time>
      </trkpt>
      <trkpt lat="48.59762" lon="1.9592">
        <ele>125.59</ele>
        <time>2017-02-21T08:48:47Z</time>
      </trkpt>
      <trkpt lat="48.59775" lon="1.95901">
        <ele>125.11</ele>
        <time>2017-02-21T08:48:58Z</time>
      </trkpt>
      <trkpt lat="48.5979" lon="1.95873">
        <ele>124.15</ele>
        <time>2017-02-21T08:49:12Z</time>
      </trkpt>
      <trkpt lat="48.59802" lon="1.95847">
        <ele>124.15</ele>
        <time>2017-02-21T08:49:24Z</time>
      </trkpt>
      <trkpt lat="48.59808" lon="1.95825">
        <ele>124.15</ele>
        <time>2017-02-21T08:49:35Z</time>
      </trkpt>
      <trkpt lat="48.5981" lon="1.9582">
        <ele>123.67</ele>
        <time>2017-02-21T08:49:38Z</time>
      </trkpt>
      <trkpt lat="48.59813" lon="1.95813">
        <ele>124.15</ele>
        <time>2017-02-21T08:49:41Z</time>
      </trkpt>
      <trkpt lat="48.59825" lon="1.95789">
        <ele>123.67</ele>
        <time>2017-02-21T08:49:53Z</time>
      </trkpt>
      <trkpt lat="48.59831" lon="1.95775">
        <ele>122.71</ele>
        <time>2017-02-21T08:50:02Z</time>
      </trkpt>
      <trkpt lat="48.59833" lon="1.95769">
        <ele>122.71</ele>
        <time>2017-02-21T08:50:05Z</time>
      </trkpt>
      <trkpt lat="48.59842" lon="1.95752">
        <ele>122.71</ele>
        <time>2017-02-21T08:50:13Z</time>
      </trkpt>
      <trkpt lat="48.59847" lon="1.9574">
        <ele>122.22</ele>
        <time>2017-02-21T08:50:17Z</time>
      </trkpt>
      <trkpt lat="48.59858" lon="1.95712">
        <ele>122.71</ele>
        <time>2017-02-21T08:50:31Z</time>
      </trkpt>
      <trkpt lat="48.59868" lon="1.95686">
        <ele>121.26</ele>
        <time>2017-02-21T08:50:44Z</time>
      </trkpt>
      <trkpt lat="48.59884" lon="1.9566">
        <ele>121.74</ele>
        <time>2017-02-21T08:50:58Z</time>
      </trkpt>
      <trkpt lat="48.599" lon="1.95629">
        <ele>121.26</ele>
        <time>2017-02-21T08:51:14Z</time>
      </trkpt>
      <trkpt lat="48.59905" lon="1.95624">
        <ele>121.26</ele>
        <time>2017-02-21T08:51:17Z</time>
      </trkpt>
      <trkpt lat="48.59912" lon="1.95598">
        <ele>121.26</ele>
        <time>2017-02-21T08:51:30Z</time>
      </trkpt>
      <trkpt lat="48.59926" lon="1.95561">
        <ele>120.3</ele>
        <time>2017-02-21T08:51:47Z</time>
      </trkpt>
      <trkpt lat="48.59939" lon="1.95537">
        <ele>119.82</ele>
        <time>2017-02-21T08:51:58Z</time>
      </trkpt>
      <trkpt lat="48.59952" lon="1.95515">
        <ele>117.42</ele>
        <time>2017-02-21T08:52:11Z</time>
      </trkpt>
      <trkpt lat="48.5996" lon="1.95491">
        <ele>115.5</ele>
        <time>2017-02-21T08:52:26Z</time>
      </trkpt>
      <trkpt lat="48.59974" lon="1.95463">
        <ele>114.53</ele>
        <time>2017-02-21T08:52:39Z</time>
      </trkpt>
      <trkpt lat="48.59986" lon="1.95434">
        <ele>114.05</ele>
        <time>2017-02-21T08:52:52Z</time>
      </trkpt>
      <trkpt lat="48.60006" lon="1.95414">
        <ele>113.09</ele>
        <time>2017-02-21T08:53:08Z</time>
      </trkpt>
      <trkpt lat="48.60008" lon="1.9541">
        <ele>112.61</ele>
        <time>2017-02-21T08:53:10Z</time>
      </trkpt>
      <trkpt lat="48.60011" lon="1.95403">
        <ele>112.61</ele>
        <time>2017-02-21T08:53:14Z</time>
      </trkpt>
      <trkpt lat="48.60019" lon="1.95366">
        <ele>113.57</ele>
        <time>2017-02-21T08:53:27Z</time>
      </trkpt>
      <trkpt lat="48.60021" lon="1.95357">
        <ele>113.57</ele>
        <time>2017-02-21T08:53:31Z</time>
      </trkpt>
      <trkpt lat="48.60032" lon="1.9533">
        <ele>113.57</ele>
        <time>2017-02-21T08:53:45Z</time>
      </trkpt>
      <trkpt lat="48.60046" lon="1.95313">
        <ele>112.61</ele>
        <time>2017-02-21T08:53:56Z</time>
      </trkpt>
      <trkpt lat="48.60053" lon="1.95305">
        <ele>112.13</ele>
        <time>2017-02-21T08:54:03Z</time>
      </trkpt>
      <trkpt lat="48.60075" lon="1.95285">
        <ele>112.13</ele>
        <time>2017-02-21T08:54:19Z</time>
      </trkpt>
      <trkpt lat="48.60077" lon="1.95281">
        <ele>112.61</ele>
        <time>2017-02-21T08:54:35Z</time>
      </trkpt>
      <trkpt lat="48.60079" lon="1.95282">
        <ele>112.61</ele>
        <time>2017-02-21T08:54:59Z</time>
      </trkpt>
      <trkpt lat="48.6008" lon="1.95282">
        <ele>112.61</ele>
        <time>2017-02-21T08:55:23Z</time>
      </trkpt>
      <trkpt lat="48.60082" lon="1.95282">
        <ele>112.61</ele>
        <time>2017-02-21T08:55:45Z</time>
      </trkpt>
      <trkpt lat="48.6008" lon="1.95284">
        <ele>112.61</ele>
        <time>2017-02-21T08:55:59Z</time>
      </trkpt>
      <trkpt lat="48.60078" lon="1.95283">
        <ele>112.61</ele>
        <time>2017-02-21T08:56:21Z</time>
      </trkpt>
      <trkpt lat="48.60076" lon="1.95282">
        <ele>112.13</ele>
        <time>2017-02-21T08:56:37Z</time>
      </trkpt>
      <trkpt lat="48.60074" lon="1.95282">
        <ele>111.65</ele>
        <time>2017-02-21T08:56:57Z</time>
      </trkpt>
      <trkpt lat="48.60075" lon="1.95284">
        <ele>112.13</ele>
        <time>2017-02-21T08:57:17Z</time>
      </trkpt>
      <trkpt lat="48.60075" lon="1.95286">
        <ele>111.65</ele>
        <time>2017-02-21T08:57:35Z</time>
      </trkpt>
      <trkpt lat="48.60076" lon="1.95285">
        <ele>111.65</ele>
        <time>2017-02-21T08:57:56Z</time>
      </trkpt>
      <trkpt lat="48.60076" lon="1.95285">
        <ele>111.17</ele>
        <time>2017-02-21T08:58:14Z</time>
      </trkpt>
      <trkpt lat="48.60076" lon="1.95288">
        <ele>110.69</ele>
        <time>2017-02-21T08:58:36Z</time>
      </trkpt>
      <trkpt lat="48.60077" lon="1.95293">
        <ele>111.17</ele>
        <time>2017-02-21T08:58:49Z</time>
      </trkpt>
      <trkpt lat="48.60101" lon="1.95315">
        <ele>111.17</ele>
        <time>2017-02-21T08:59:07Z</time>
      </trkpt>
      <trkpt lat="48.6011" lon="1.95324">
        <ele>111.17</ele>
        <time>2017-02-21T08:59:13Z</time>
      </trkpt>
      <trkpt lat="48.60128" lon="1.95342">
        <ele>110.69</ele>
        <time>2017-02-21T08:59:27Z</time>
      </trkpt>
      <trkpt lat="48.60128" lon="1.95361">
        <ele>110.21</ele>
        <time>2017-02-21T08:59:42Z</time>
      </trkpt>
      <trkpt lat="48.60124" lon="1.95381">
        <ele>109.25</ele>
        <time>2017-02-21T09:00:00Z</time>
      </trkpt>
      <trkpt lat="48.60134" lon="1.95398">
        <ele>109.25</ele>
        <time>2017-02-21T09:00:07Z</time>
      </trkpt>
      <trkpt lat="48.60134" lon="1.95403">
        <ele>110.21</ele>
        <time>2017-02-21T09:00:09Z</time>
      </trkpt>
      <trkpt lat="48.60154" lon="1.95423">
        <ele>108.77</ele>
        <time>2017-02-21T09:00:25Z</time>
      </trkpt>
      <trkpt lat="48.60183" lon="1.95443">
        <ele>109.73</ele>
        <time>2017-02-21T09:00:39Z</time>
      </trkpt>
      <trkpt lat="48.60184" lon="1.95448">
        <ele>109.73</ele>
        <time>2017-02-21T09:00:42Z</time>
      </trkpt>
      <trkpt lat="48.60205" lon="1.95465">
        <ele>108.29</ele>
        <time>2017-02-21T09:00:57Z</time>
      </trkpt>
      <trkpt lat="48.60206" lon="1.95468">
        <ele>107.81</ele>
        <time>2017-02-21T09:00:59Z</time>
      </trkpt>
      <trkpt lat="48.60249" lon="1.95485">
        <ele>107.32</ele>
        <time>2017-02-21T09:01:10Z</time>
      </trkpt>
      <trkpt lat="48.6026" lon="1.95492">
        <ele>106.84</ele>
        <time>2017-02-21T09:01:14Z</time>
      </trkpt>
      <trkpt lat="48.6028" lon="1.95509">
        <ele>107.81</ele>
        <time>2017-02-21T09:01:28Z</time>
      </trkpt>
      <trkpt lat="48.60284" lon="1.95512">
        <ele>106.84</ele>
        <time>2017-02-21T09:01:31Z</time>
      </trkpt>
      <trkpt lat="48.60287" lon="1.95515">
        <ele>107.32</ele>
        <time>2017-02-21T09:01:33Z</time>
      </trkpt>
      <trkpt lat="48.60306" lon="1.95536">
        <ele>107.81</ele>
        <time>2017-02-21T09:01:49Z</time>
      </trkpt>
      <trkpt lat="48.60322" lon="1.95559">
        <ele>107.81</ele>
        <time>2017-02-21T09:02:03Z</time>
      </trkpt>
      <trkpt lat="48.60341" lon="1.95579">
        <ele>107.32</ele>
        <time>2017-02-21T09:02:18Z</time>
      </trkpt>
      <trkpt lat="48.60359" lon="1.956">
        <ele>106.84</ele>
        <time>2017-02-21T09:02:34Z</time>
      </trkpt>
      <trkpt lat="48.60361" lon="1.95601">
        <ele>106.84</ele>
        <time>2017-02-21T09:02:35Z</time>
      </trkpt>
      <trkpt lat="48.60379" lon="1.95623">
        <ele>106.36</ele>
        <time>2017-02-21T09:02:48Z</time>
      </trkpt>
      <trkpt lat="48.60402" lon="1.95635">
        <ele>106.36</ele>
        <time>2017-02-21T09:03:02Z</time>
      </trkpt>
      <trkpt lat="48.60404" lon="1.95636">
        <ele>106.36</ele>
        <time>2017-02-21T09:03:03Z</time>
      </trkpt>
      <trkpt lat="48.60423" lon="1.95665">
        <ele>107.32</ele>
        <time>2017-02-21T09:03:19Z</time>
      </trkpt>
      <trkpt lat="48.60436" lon="1.95685">
        <ele>105.88</ele>
        <time>2017-02-21T09:03:35Z</time>
      </trkpt>
      <trkpt lat="48.60446" lon="1.95695">
        <ele>105.4</ele>
        <time>2017-02-21T09:03:42Z</time>
      </trkpt>
      <trkpt lat="48.60458" lon="1.95707">
        <ele>104.92</ele>
        <time>2017-02-21T09:03:47Z</time>
      </trkpt>
      <trkpt lat="48.6048" lon="1.95729">
        <ele>105.88</ele>
        <time>2017-02-21T09:04:04Z</time>
      </trkpt>
      <trkpt lat="48.60488" lon="1.95736">
        <ele>105.4</ele>
        <time>2017-02-21T09:04:09Z</time>
      </trkpt>
      <trkpt lat="48.605" lon="1.95752">
        <ele>105.4</ele>
        <time>2017-02-21T09:04:20Z</time>
      </trkpt>
      <trkpt lat="48.60508" lon="1.95759">
        <ele>104.92</ele>
        <time>2017-02-21T09:04:26Z</time>
      </trkpt>
      <trkpt lat="48.60524" lon="1.95782">
        <ele>103.96</ele>
        <time>2017-02-21T09:04:40Z</time>
      </trkpt>
      <trkpt lat="48.60528" lon="1.95787">
        <ele>103.96</ele>
        <time>2017-02-21T09:04:45Z</time>
      </trkpt>
      <trkpt lat="48.60539" lon="1.95798">
        <ele>103.48</ele>
        <time>2017-02-21T09:04:52Z</time>
      </trkpt>
      <trkpt lat="48.60549" lon="1.95806">
        <ele>103</ele>
        <time>2017-02-21T09:04:57Z</time>
      </trkpt>
      <trkpt lat="48.60557" lon="1.95818">
        <ele>103.48</ele>
        <time>2017-02-21T09:05:02Z</time>
      </trkpt>
      <trkpt lat="48.60563" lon="1.95824">
        <ele>103</ele>
        <time>2017-02-21T09:05:06Z</time>
      </trkpt>
      <trkpt lat="48.60577" lon="1.95839">
        <ele>103.48</ele>
        <time>2017-02-21T09:05:19Z</time>
      </trkpt>
      <trkpt lat="48.60585" lon="1.9585">
        <ele>103.96</ele>
        <time>2017-02-21T09:05:26Z</time>
      </trkpt>
      <trkpt lat="48.60588" lon="1.95852">
        <ele>103.96</ele>
        <time>2017-02-21T09:05:28Z</time>
      </trkpt>
      <trkpt lat="48.6061" lon="1.95875">
        <ele>103</ele>
        <time>2017-02-21T09:05:46Z</time>
      </trkpt>
      <trkpt lat="48.6061" lon="1.95875">
        <ele>103</ele>
        <time>2017-02-21T09:05:47Z</time>
      </trkpt>
      <trkpt lat="48.60616" lon="1.95883">
        <ele>103</ele>
        <time>2017-02-21T09:05:51Z</time>
      </trkpt>
      <trkpt lat="48.6062" lon="1.95888">
        <ele>103.48</ele>
        <time>2017-02-21T09:05:55Z</time>
      </trkpt>
      <trkpt lat="48.60648" lon="1.95912">
        <ele>102.52</ele>
        <time>2017-02-21T09:06:13Z</time>
      </trkpt>
      <trkpt lat="48.60649" lon="1.95914">
        <ele>102.52</ele>
        <time>2017-02-21T09:06:14Z</time>
      </trkpt>
      <trkpt lat="48.60655" lon="1.95921">
        <ele>102.52</ele>
        <time>2017-02-21T09:06:19Z</time>
      </trkpt>
      <trkpt lat="48.60665" lon="1.95933">
        <ele>102.52</ele>
        <time>2017-02-21T09:06:27Z</time>
      </trkpt>
      <trkpt lat="48.60681" lon="1.95952">
        <ele>103</ele>
        <time>2017-02-21T09:06:42Z</time>
      </trkpt>
      <trkpt lat="48.60688" lon="1.9596">
        <ele>103.96</ele>
        <time>2017-02-21T09:06:49Z</time>
      </trkpt>
      <trkpt lat="48.6071" lon="1.95992">
        <ele>103.96</ele>
        <time>2017-02-21T09:07:06Z</time>
      </trkpt>
      <trkpt lat="48.60715" lon="1.96004">
        <ele>103.96</ele>
        <time>2017-02-21T09:07:13Z</time>
      </trkpt>
      <trkpt lat="48.60719" lon="1.96021">
        <ele>104.92</ele>
        <time>2017-02-21T09:07:21Z</time>
      </trkpt>
      <trkpt lat="48.60721" lon="1.96042">
        <ele>106.36</ele>
        <time>2017-02-21T09:07:29Z</time>
      </trkpt>
      <trkpt lat="48.60721" lon="1.9605">
        <ele>106.36</ele>
        <time>2017-02-21T09:07:33Z</time>
      </trkpt>
      <trkpt lat="48.60723" lon="1.96072">
        <ele>107.81</ele>
        <time>2017-02-21T09:07:46Z</time>
      </trkpt>
      <trkpt lat="48.60722" lon="1.96075">
        <ele>107.81</ele>
        <time>2017-02-21T09:07:47Z</time>
      </trkpt>
      <trkpt lat="48.60721" lon="1.96091">
        <ele>107.81</ele>
        <time>2017-02-21T09:07:52Z</time>
      </trkpt>
      <trkpt lat="48.60721" lon="1.96096">
        <ele>109.25</ele>
        <time>2017-02-21T09:07:54Z</time>
      </trkpt>
      <trkpt lat="48.60708" lon="1.96122">
        <ele>109.25</ele>
        <time>2017-02-21T09:08:05Z</time>
      </trkpt>
      <trkpt lat="48.60705" lon="1.9613">
        <ele>110.21</ele>
        <time>2017-02-21T09:08:10Z</time>
      </trkpt>
      <trkpt lat="48.60702" lon="1.96138">
        <ele>110.69</ele>
        <time>2017-02-21T09:08:15Z</time>
      </trkpt>
      <trkpt lat="48.60696" lon="1.96148">
        <ele>110.69</ele>
        <time>2017-02-21T09:08:20Z</time>
      </trkpt>
      <trkpt lat="48.60695" lon="1.96153">
        <ele>112.61</ele>
        <time>2017-02-21T09:08:22Z</time>
      </trkpt>
      <trkpt lat="48.60688" lon="1.96167">
        <ele>113.09</ele>
        <time>2017-02-21T09:08:30Z</time>
      </trkpt>
      <trkpt lat="48.60684" lon="1.96174">
        <ele>115.98</ele>
        <time>2017-02-21T09:08:37Z</time>
      </trkpt>
      <trkpt lat="48.6068" lon="1.96181">
        <ele>115.98</ele>
        <time>2017-02-21T09:08:43Z</time>
      </trkpt>
      <trkpt lat="48.60679" lon="1.96182">
        <ele>115.5</ele>
        <time>2017-02-21T09:08:44Z</time>
      </trkpt>
      <trkpt lat="48.60675" lon="1.96192">
        <ele>117.42</ele>
        <time>2017-02-21T09:08:50Z</time>
      </trkpt>
      <trkpt lat="48.60664" lon="1.96214">
        <ele>118.38</ele>
        <time>2017-02-21T09:09:03Z</time>
      </trkpt>
      <trkpt lat="48.60659" lon="1.9623">
        <ele>118.38</ele>
        <time>2017-02-21T09:09:13Z</time>
      </trkpt>
      <trkpt lat="48.60656" lon="1.96239">
        <ele>118.38</ele>
        <time>2017-02-21T09:09:25Z</time>
      </trkpt>
      <trkpt lat="48.60654" lon="1.96241">
        <ele>118.86</ele>
        <time>2017-02-21T09:09:37Z</time>
      </trkpt>
      <trkpt lat="48.60655" lon="1.96241">
        <ele>118.86</ele>
        <time>2017-02-21T09:09:59Z</time>
      </trkpt>
      <trkpt lat="48.60654" lon="1.96241">
        <ele>118.38</ele>
        <time>2017-02-21T09:10:19Z</time>
      </trkpt>
      <trkpt lat="48.60654" lon="1.9624">
        <ele>118.86</ele>
        <time>2017-02-21T09:10:47Z</time>
      </trkpt>
      <trkpt lat="48.60654" lon="1.96239">
        <ele>118.86</ele>
        <time>2017-02-21T09:11:08Z</time>
      </trkpt>
      <trkpt lat="48.60654" lon="1.96239">
        <ele>118.38</ele>
        <time>2017-02-21T09:11:30Z</time>
      </trkpt>
      <trkpt lat="48.60655" lon="1.96238">
        <ele>118.86</ele>
        <time>2017-02-21T09:11:34Z</time>
      </trkpt>
      <trkpt lat="48.60658" lon="1.96231">
        <ele>118.38</ele>
        <time>2017-02-21T09:11:46Z</time>
      </trkpt>
      <trkpt lat="48.60658" lon="1.9623">
        <ele>118.38</ele>
        <time>2017-02-21T09:12:07Z</time>
      </trkpt>
      <trkpt lat="48.60658" lon="1.96229">
        <ele>118.38</ele>
        <time>2017-02-21T09:12:20Z</time>
      </trkpt>
      <trkpt lat="48.60658" lon="1.96228">
        <ele>118.86</ele>
        <time>2017-02-21T09:12:36Z</time>
      </trkpt>
      <trkpt lat="48.60657" lon="1.96226">
        <ele>118.38</ele>
        <time>2017-02-21T09:12:56Z</time>
      </trkpt>
      <trkpt lat="48.60657" lon="1.96225">
        <ele>118.86</ele>
        <time>2017-02-21T09:13:17Z</time>
      </trkpt>
      <trkpt lat="48.60658" lon="1.96238">
        <ele>118.38</ele>
        <time>2017-02-21T09:13:31Z</time>
      </trkpt>
      <trkpt lat="48.60658" lon="1.96241">
        <ele>118.86</ele>
        <time>2017-02-21T09:13:33Z</time>
      </trkpt>
      <trkpt lat="48.60662" lon="1.96259">
        <ele>118.38</ele>
        <time>2017-02-21T09:13:44Z</time>
      </trkpt>
      <trkpt lat="48.60671" lon="1.96282">
        <ele>117.42</ele>
        <time>2017-02-21T09:13:55Z</time>
      </trkpt>
      <trkpt lat="48.60673" lon="1.9629">
        <ele>117.9</ele>
        <time>2017-02-21T09:13:58Z</time>
      </trkpt>
      <trkpt lat="48.60677" lon="1.96308">
        <ele>116.94</ele>
        <time>2017-02-21T09:14:06Z</time>
      </trkpt>
      <trkpt lat="48.60676" lon="1.96314">
        <ele>116.46</ele>
        <time>2017-02-21T09:14:09Z</time>
      </trkpt>
      <trkpt lat="48.60679" lon="1.96329">
        <ele>116.46</ele>
        <time>2017-02-21T09:14:16Z</time>
      </trkpt>
      <trkpt lat="48.60685" lon="1.96341">
        <ele>115.5</ele>
        <time>2017-02-21T09:14:22Z</time>
      </trkpt>
      <trkpt lat="48.60686" lon="1.96346">
        <ele>115.98</ele>
        <time>2017-02-21T09:14:24Z</time>
      </trkpt>
      <trkpt lat="48.60689" lon="1.9636">
        <ele>115.98</ele>
        <time>2017-02-21T09:14:30Z</time>
      </trkpt>
      <trkpt lat="48.60692" lon="1.96366">
        <ele>115.5</ele>
        <time>2017-02-21T09:14:33Z</time>
      </trkpt>
      <trkpt lat="48.60693" lon="1.96379">
        <ele>115.01</ele>
        <time>2017-02-21T09:14:38Z</time>
      </trkpt>
      <trkpt lat="48.60709" lon="1.96404">
        <ele>114.53</ele>
        <time>2017-02-21T09:14:52Z</time>
      </trkpt>
      <trkpt lat="48.60711" lon="1.96413">
        <ele>114.53</ele>
        <time>2017-02-21T09:14:56Z</time>
      </trkpt>
      <trkpt lat="48.60715" lon="1.96437">
        <ele>114.05</ele>
        <time>2017-02-21T09:15:08Z</time>
      </trkpt>
      <trkpt lat="48.60717" lon="1.96443">
        <ele>114.53</ele>
        <time>2017-02-21T09:15:13Z</time>
      </trkpt>
      <trkpt lat="48.60714" lon="1.96468">
        <ele>113.57</ele>
        <time>2017-02-21T09:15:24Z</time>
      </trkpt>
      <trkpt lat="48.60713" lon="1.96474">
        <ele>113.57</ele>
        <time>2017-02-21T09:15:27Z</time>
      </trkpt>
      <trkpt lat="48.6071" lon="1.96482">
        <ele>113.09</ele>
        <time>2017-02-21T09:15:30Z</time>
      </trkpt>
      <trkpt lat="48.60707" lon="1.96509">
        <ele>113.57</ele>
        <time>2017-02-21T09:15:42Z</time>
      </trkpt>
      <trkpt lat="48.607" lon="1.9654">
        <ele>113.57</ele>
        <time>2017-02-21T09:15:53Z</time>
      </trkpt>
      <trkpt lat="48.607" lon="1.96541">
        <ele>113.57</ele>
        <time>2017-02-21T09:15:54Z</time>
      </trkpt>
      <trkpt lat="48.607" lon="1.96549">
        <ele>113.09</ele>
        <time>2017-02-21T09:15:58Z</time>
      </trkpt>
      <trkpt lat="48.607" lon="1.96555">
        <ele>113.57</ele>
        <time>2017-02-21T09:16:01Z</time>
      </trkpt>
      <trkpt lat="48.60703" lon="1.96571">
        <ele>113.09</ele>
        <time>2017-02-21T09:16:09Z</time>
      </trkpt>
      <trkpt lat="48.60704" lon="1.96599">
        <ele>112.61</ele>
        <time>2017-02-21T09:16:21Z</time>
      </trkpt>
      <trkpt lat="48.60701" lon="1.96628">
        <ele>112.13</ele>
        <time>2017-02-21T09:16:32Z</time>
      </trkpt>
      <trkpt lat="48.60703" lon="1.96652">
        <ele>111.65</ele>
        <time>2017-02-21T09:16:45Z</time>
      </trkpt>
      <trkpt lat="48.60699" lon="1.96674">
        <ele>111.65</ele>
        <time>2017-02-21T09:16:54Z</time>
      </trkpt>
      <trkpt lat="48.60698" lon="1.9668">
        <ele>111.65</ele>
        <time>2017-02-21T09:16:56Z</time>
      </trkpt>
      <trkpt lat="48.60702" lon="1.96691">
        <ele>111.17</ele>
        <time>2017-02-21T09:17:01Z</time>
      </trkpt>
      <trkpt lat="48.60704" lon="1.96724">
        <ele>110.69</ele>
        <time>2017-02-21T09:17:16Z</time>
      </trkpt>
      <trkpt lat="48.60706" lon="1.96731">
        <ele>110.69</ele>
        <time>2017-02-21T09:17:20Z</time>
      </trkpt>
      <trkpt lat="48.60711" lon="1.9674">
        <ele>110.69</ele>
        <time>2017-02-21T09:17:26Z</time>
      </trkpt>
      <trkpt lat="48.60713" lon="1.96744">
        <ele>109.73</ele>
        <time>2017-02-21T09:17:28Z</time>
      </trkpt>
      <trkpt lat="48.60715" lon="1.96749">
        <ele>109.73</ele>
        <time>2017-02-21T09:17:31Z</time>
      </trkpt>
      <trkpt lat="48.60715" lon="1.96759">
        <ele>109.73</ele>
        <time>2017-02-21T09:17:35Z</time>
      </trkpt>
      <trkpt lat="48.60712" lon="1.96797">
        <ele>109.73</ele>
        <time>2017-02-21T09:17:51Z</time>
      </trkpt>
      <trkpt lat="48.60712" lon="1.968">
        <ele>109.73</ele>
        <time>2017-02-21T09:17:54Z</time>
      </trkpt>
      <trkpt lat="48.6071" lon="1.96804">
        <ele>108.77</ele>
        <time>2017-02-21T09:17:56Z</time>
      </trkpt>
      <trkpt lat="48.607" lon="1.96843">
        <ele>109.73</ele>
        <time>2017-02-21T09:18:09Z</time>
      </trkpt>
      <trkpt lat="48.60699" lon="1.96846">
        <ele>110.69</ele>
        <time>2017-02-21T09:18:11Z</time>
      </trkpt>
      <trkpt lat="48.60698" lon="1.9685">
        <ele>109.25</ele>
        <time>2017-02-21T09:18:13Z</time>
      </trkpt>
      <trkpt lat="48.60695" lon="1.96879">
        <ele>108.77</ele>
        <time>2017-02-21T09:18:26Z</time>
      </trkpt>
      <trkpt lat="48.60691" lon="1.969">
        <ele>108.77</ele>
        <time>2017-02-21T09:18:35Z</time>
      </trkpt>
      <trkpt lat="48.60687" lon="1.96921">
        <ele>109.25</ele>
        <time>2017-02-21T09:18:47Z</time>
      </trkpt>
      <trkpt lat="48.60684" lon="1.96927">
        <ele>109.25</ele>
        <time>2017-02-21T09:18:51Z</time>
      </trkpt>
      <trkpt lat="48.60683" lon="1.96931">
        <ele>108.77</ele>
        <time>2017-02-21T09:18:53Z</time>
      </trkpt>
      <trkpt lat="48.60674" lon="1.9695">
        <ele>109.25</ele>
        <time>2017-02-21T09:19:03Z</time>
      </trkpt>
      <trkpt lat="48.60665" lon="1.96971">
        <ele>109.25</ele>
        <time>2017-02-21T09:19:15Z</time>
      </trkpt>
      <trkpt lat="48.60662" lon="1.96988">
        <ele>109.73</ele>
        <time>2017-02-21T09:19:22Z</time>
      </trkpt>
      <trkpt lat="48.60661" lon="1.96992">
        <ele>110.69</ele>
        <time>2017-02-21T09:19:24Z</time>
      </trkpt>
      <trkpt lat="48.60659" lon="1.97018">
        <ele>109.73</ele>
        <time>2017-02-21T09:19:37Z</time>
      </trkpt>
      <trkpt lat="48.60658" lon="1.97042">
        <ele>109.25</ele>
        <time>2017-02-21T09:19:47Z</time>
      </trkpt>
      <trkpt lat="48.60667" lon="1.97064">
        <ele>108.29</ele>
        <time>2017-02-21T09:19:59Z</time>
      </trkpt>
      <trkpt lat="48.60668" lon="1.97065">
        <ele>108.29</ele>
        <time>2017-02-21T09:20:00Z</time>
      </trkpt>
      <trkpt lat="48.60669" lon="1.97076">
        <ele>107.32</ele>
        <time>2017-02-21T09:20:08Z</time>
      </trkpt>
      <trkpt lat="48.60672" lon="1.9708">
        <ele>107.32</ele>
        <time>2017-02-21T09:20:11Z</time>
      </trkpt>
      <trkpt lat="48.60683" lon="1.97096">
        <ele>105.4</ele>
        <time>2017-02-21T09:20:22Z</time>
      </trkpt>
      <trkpt lat="48.60689" lon="1.97102">
        <ele>105.4</ele>
        <time>2017-02-21T09:20:26Z</time>
      </trkpt>
      <trkpt lat="48.60694" lon="1.97116">
        <ele>104.92</ele>
        <time>2017-02-21T09:20:34Z</time>
      </trkpt>
      <trkpt lat="48.60694" lon="1.97124">
        <ele>104.92</ele>
        <time>2017-02-21T09:20:38Z</time>
      </trkpt>
      <trkpt lat="48.60693" lon="1.97136">
        <ele>104.44</ele>
        <time>2017-02-21T09:20:43Z</time>
      </trkpt>
      <trkpt lat="48.60694" lon="1.97151">
        <ele>103.96</ele>
        <time>2017-02-21T09:20:48Z</time>
      </trkpt>
      <trkpt lat="48.60707" lon="1.97179">
        <ele>103</ele>
        <time>2017-02-21T09:21:02Z</time>
      </trkpt>
      <trkpt lat="48.60706" lon="1.97204">
        <ele>102.52</ele>
        <time>2017-02-21T09:21:16Z</time>
      </trkpt>
      <trkpt lat="48.60705" lon="1.9721">
        <ele>102.52</ele>
        <time>2017-02-21T09:21:21Z</time>
      </trkpt>
      <trkpt lat="48.60695" lon="1.97254">
        <ele>103</ele>
        <time>2017-02-21T09:21:39Z</time>
      </trkpt>
      <trkpt lat="48.60695" lon="1.97259">
        <ele>102.52</ele>
        <time>2017-02-21T09:21:42Z</time>
      </trkpt>
      <trkpt lat="48.60697" lon="1.97269">
        <ele>102.52</ele>
        <time>2017-02-21T09:21:46Z</time>
      </trkpt>
      <trkpt lat="48.60697" lon="1.97274">
        <ele>103</ele>
        <time>2017-02-21T09:21:48Z</time>
      </trkpt>
      <trkpt lat="48.60701" lon="1.97286">
        <ele>101.56</ele>
        <time>2017-02-21T09:21:55Z</time>
      </trkpt>
      <trkpt lat="48.60704" lon="1.97296">
        <ele>102.04</ele>
        <time>2017-02-21T09:22:00Z</time>
      </trkpt>
      <trkpt lat="48.60714" lon="1.97326">
        <ele>101.56</ele>
        <time>2017-02-21T09:22:15Z</time>
      </trkpt>
      <trkpt lat="48.60717" lon="1.97356">
        <ele>100.6</ele>
        <time>2017-02-21T09:22:28Z</time>
      </trkpt>
      <trkpt lat="48.60719" lon="1.97367">
        <ele>101.08</ele>
        <time>2017-02-21T09:22:34Z</time>
      </trkpt>
      <trkpt lat="48.60718" lon="1.97379">
        <ele>101.56</ele>
        <time>2017-02-21T09:22:39Z</time>
      </trkpt>
      <trkpt lat="48.60722" lon="1.97397">
        <ele>101.08</ele>
        <time>2017-02-21T09:22:47Z</time>
      </trkpt>
      <trkpt lat="48.60724" lon="1.97401">
        <ele>101.08</ele>
        <time>2017-02-21T09:22:49Z</time>
      </trkpt>
      <trkpt lat="48.60727" lon="1.97405">
        <ele>100.6</ele>
        <time>2017-02-21T09:22:51Z</time>
      </trkpt>
      <trkpt lat="48.6074" lon="1.97419">
        <ele>99.63</ele>
        <time>2017-02-21T09:23:05Z</time>
      </trkpt>
      <trkpt lat="48.6075" lon="1.97434">
        <ele>99.63</ele>
        <time>2017-02-21T09:23:18Z</time>
      </trkpt>
      <trkpt lat="48.60771" lon="1.9744">
        <ele>98.67</ele>
        <time>2017-02-21T09:23:31Z</time>
      </trkpt>
      <trkpt lat="48.60771" lon="1.9744">
        <ele>98.67</ele>
        <time>2017-02-21T09:23:32Z</time>
      </trkpt>
      <trkpt lat="48.60787" lon="1.97454">
        <ele>98.19</ele>
        <time>2017-02-21T09:23:40Z</time>
      </trkpt>
      <trkpt lat="48.60794" lon="1.97477">
        <ele>98.67</ele>
        <time>2017-02-21T09:23:54Z</time>
      </trkpt>
      <trkpt lat="48.60799" lon="1.975">
        <ele>98.19</ele>
        <time>2017-02-21T09:24:04Z</time>
      </trkpt>
      <trkpt lat="48.60798" lon="1.97536">
        <ele>97.71</ele>
        <time>2017-02-21T09:24:17Z</time>
      </trkpt>
      <trkpt lat="48.60803" lon="1.97553">
        <ele>98.19</ele>
        <time>2017-02-21T09:24:25Z</time>
      </trkpt>
      <trkpt lat="48.60814" lon="1.97578">
        <ele>98.19</ele>
        <time>2017-02-21T09:24:38Z</time>
      </trkpt>
      <trkpt lat="48.60816" lon="1.97585">
        <ele>97.71</ele>
        <time>2017-02-21T09:24:41Z</time>
      </trkpt>
      <trkpt lat="48.60825" lon="1.97601">
        <ele>97.23</ele>
        <time>2017-02-21T09:24:47Z</time>
      </trkpt>
      <trkpt lat="48.60826" lon="1.97617">
        <ele>98.19</ele>
        <time>2017-02-21T09:24:52Z</time>
      </trkpt>
      <trkpt lat="48.60833" lon="1.97647">
        <ele>97.71</ele>
        <time>2017-02-21T09:25:06Z</time>
      </trkpt>
      <trkpt lat="48.60835" lon="1.97647">
        <ele>97.71</ele>
        <time>2017-02-21T09:25:07Z</time>
      </trkpt>
      <trkpt lat="48.6084" lon="1.97668">
        <ele>96.75</ele>
        <time>2017-02-21T09:25:17Z</time>
      </trkpt>
      <trkpt lat="48.60839" lon="1.97698">
        <ele>96.27</ele>
        <time>2017-02-21T09:25:28Z</time>
      </trkpt>
      <trkpt lat="48.6084" lon="1.97702">
        <ele>96.75</ele>
        <time>2017-02-21T09:25:30Z</time>
      </trkpt>
      <trkpt lat="48.60841" lon="1.97716">
        <ele>96.27</ele>
        <time>2017-02-21T09:25:38Z</time>
      </trkpt>
      <trkpt lat="48.60837" lon="1.97739">
        <ele>96.75</ele>
        <time>2017-02-21T09:25:46Z</time>
      </trkpt>
      <trkpt lat="48.60837" lon="1.97764">
        <ele>96.27</ele>
        <time>2017-02-21T09:26:01Z</time>
      </trkpt>
      <trkpt lat="48.60839" lon="1.97781">
        <ele>96.27</ele>
        <time>2017-02-21T09:26:13Z</time>
      </trkpt>
      <trkpt lat="48.60832" lon="1.97814">
        <ele>96.27</ele>
        <time>2017-02-21T09:26:24Z</time>
      </trkpt>
      <trkpt lat="48.60833" lon="1.97829">
        <ele>95.31</ele>
        <time>2017-02-21T09:26:33Z</time>
      </trkpt>
      <trkpt lat="48.60836" lon="1.9785">
        <ele>95.79</ele>
        <time>2017-02-21T09:26:44Z</time>
      </trkpt>
      <trkpt lat="48.60829" lon="1.97879">
        <ele>95.79</ele>
        <time>2017-02-21T09:26:56Z</time>
      </trkpt>
      <trkpt lat="48.60826" lon="1.97894">
        <ele>95.79</ele>
        <time>2017-02-21T09:27:00Z</time>
      </trkpt>
      <trkpt lat="48.60818" lon="1.97936">
        <ele>96.27</ele>
        <time>2017-02-21T09:27:15Z</time>
      </trkpt>
      <trkpt lat="48.60821" lon="1.97945">
        <ele>96.27</ele>
        <time>2017-02-21T09:27:27Z</time>
      </trkpt>
      <trkpt lat="48.60818" lon="1.97965">
        <ele>96.75</ele>
        <time>2017-02-21T09:27:40Z</time>
      </trkpt>
      <trkpt lat="48.60808" lon="1.97999">
        <ele>97.23</ele>
        <time>2017-02-21T09:27:49Z</time>
      </trkpt>
      <trkpt lat="48.60803" lon="1.98014">
        <ele>96.75</ele>
        <time>2017-02-21T09:27:53Z</time>
      </trkpt>
      <trkpt lat="48.60805" lon="1.98017">
        <ele>96.27</ele>
        <time>2017-02-21T09:27:55Z</time>
      </trkpt>
      <trkpt lat="48.60796" lon="1.98049">
        <ele>96.27</ele>
        <time>2017-02-21T09:28:08Z</time>
      </trkpt>
      <trkpt lat="48.60786" lon="1.98087">
        <ele>96.75</ele>
        <time>2017-02-21T09:28:22Z</time>
      </trkpt>
      <trkpt lat="48.60786" lon="1.98093">
        <ele>96.75</ele>
        <time>2017-02-21T09:28:25Z</time>
      </trkpt>
      <trkpt lat="48.60775" lon="1.98133">
        <ele>96.75</ele>
        <time>2017-02-21T09:28:39Z</time>
      </trkpt>
      <trkpt lat="48.60773" lon="1.9816">
        <ele>96.75</ele>
        <time>2017-02-21T09:28:54Z</time>
      </trkpt>
      <trkpt lat="48.6076" lon="1.982">
        <ele>96.75</ele>
        <time>2017-02-21T09:29:06Z</time>
      </trkpt>
      <trkpt lat="48.60758" lon="1.98203">
        <ele>96.75</ele>
        <time>2017-02-21T09:29:09Z</time>
      </trkpt>
      <trkpt lat="48.60749" lon="1.98232">
        <ele>96.27</ele>
        <time>2017-02-21T09:29:23Z</time>
      </trkpt>
      <trkpt lat="48.60743" lon="1.98245">
        <ele>95.79</ele>
        <time>2017-02-21T09:29:30Z</time>
      </trkpt>
      <trkpt lat="48.60737" lon="1.98258">
        <ele>95.79</ele>
        <time>2017-02-21T09:29:45Z</time>
      </trkpt>
      <trkpt lat="48.60735" lon="1.98259">
        <ele>95.79</ele>
        <time>2017-02-21T09:30:10Z</time>
      </trkpt>
      <trkpt lat="48.60736" lon="1.98257">
        <ele>96.27</ele>
        <time>2017-02-21T09:30:26Z</time>
      </trkpt>
      <trkpt lat="48.60737" lon="1.98257">
        <ele>96.27</ele>
        <time>2017-02-21T09:30:46Z</time>
      </trkpt>
      <trkpt lat="48.60732" lon="1.98277">
        <ele>95.79</ele>
        <time>2017-02-21T09:31:05Z</time>
      </trkpt>
      <trkpt lat="48.60723" lon="1.98294">
        <ele>95.79</ele>
        <time>2017-02-21T09:31:24Z</time>
      </trkpt>
      <trkpt lat="48.60722" lon="1.98292">
        <ele>95.79</ele>
        <time>2017-02-21T09:31:51Z</time>
      </trkpt>
      <trkpt lat="48.60722" lon="1.98291">
        <ele>95.79</ele>
        <time>2017-02-21T09:32:18Z</time>
      </trkpt>
      <trkpt lat="48.6072" lon="1.98291">
        <ele>96.27</ele>
        <time>2017-02-21T09:32:38Z</time>
      </trkpt>
      <trkpt lat="48.6072" lon="1.98291">
        <ele>95.79</ele>
        <time>2017-02-21T09:33:01Z</time>
      </trkpt>
      <trkpt lat="48.60719" lon="1.9829">
        <ele>96.27</ele>
        <time>2017-02-21T09:33:27Z</time>
      </trkpt>
      <trkpt lat="48.60718" lon="1.98289">
        <ele>95.79</ele>
        <time>2017-02-21T09:33:44Z</time>
      </trkpt>
      <trkpt lat="48.60719" lon="1.98289">
        <ele>95.79</ele>
        <time>2017-02-21T09:34:08Z</time>
      </trkpt>
      <trkpt lat="48.60718" lon="1.98288">
        <ele>96.27</ele>
        <time>2017-02-21T09:34:29Z</time>
      </trkpt>
      <trkpt lat="48.60711" lon="1.98292">
        <ele>96.27</ele>
        <time>2017-02-21T09:34:41Z</time>
      </trkpt>
      <trkpt lat="48.60694" lon="1.98298">
        <ele>96.27</ele>
        <time>2017-02-21T09:34:53Z</time>
      </trkpt>
      <trkpt lat="48.60672" lon="1.98302">
        <ele>95.79</ele>
        <time>2017-02-21T09:35:09Z</time>
      </trkpt>
      <trkpt lat="48.60656" lon="1.98316">
        <ele>96.27</ele>
        <time>2017-02-21T09:35:23Z</time>
      </trkpt>
      <trkpt lat="48.60636" lon="1.98323">
        <ele>96.27</ele>
        <time>2017-02-21T09:35:36Z</time>
      </trkpt>
      <trkpt lat="48.60633" lon="1.98324">
        <ele>95.79</ele>
        <time>2017-02-21T09:35:38Z</time>
      </trkpt>
      <trkpt lat="48.60612" lon="1.98333">
        <ele>96.75</ele>
        <time>2017-02-21T09:35:54Z</time>
      </trkpt>
      <trkpt lat="48.60595" lon="1.98337">
        <ele>97.71</ele>
        <time>2017-02-21T09:36:08Z</time>
      </trkpt>
      <trkpt lat="48.60575" lon="1.98347">
        <ele>98.19</ele>
        <time>2017-02-21T09:36:21Z</time>
      </trkpt>
      <trkpt lat="48.60562" lon="1.98353">
        <ele>96.75</ele>
        <time>2017-02-21T09:36:30Z</time>
      </trkpt>
      <trkpt lat="48.60542" lon="1.98367">
        <ele>97.23</ele>
        <time>2017-02-21T09:36:43Z</time>
      </trkpt>
      <trkpt lat="48.60537" lon="1.9837">
        <ele>96.75</ele>
        <time>2017-02-21T09:36:46Z</time>
      </trkpt>
      <trkpt lat="48.60515" lon="1.98378">
        <ele>95.31</ele>
        <time>2017-02-21T09:37:01Z</time>
      </trkpt>
      <trkpt lat="48.6051" lon="1.98376">
        <ele>96.27</ele>
        <time>2017-02-21T09:37:04Z</time>
      </trkpt>
      <trkpt lat="48.605" lon="1.98378">
        <ele>95.31</ele>
        <time>2017-02-21T09:37:10Z</time>
      </trkpt>
      <trkpt lat="48.60496" lon="1.98379">
        <ele>95.31</ele>
        <time>2017-02-21T09:37:12Z</time>
      </trkpt>
      <trkpt lat="48.60483" lon="1.98379">
        <ele>94.83</ele>
        <time>2017-02-21T09:37:21Z</time>
      </trkpt>
      <trkpt lat="48.60475" lon="1.9838">
        <ele>95.31</ele>
        <time>2017-02-21T09:37:25Z</time>
      </trkpt>
      <trkpt lat="48.60461" lon="1.9838">
        <ele>95.31</ele>
        <time>2017-02-21T09:37:39Z</time>
      </trkpt>
      <trkpt lat="48.60459" lon="1.98376">
        <ele>94.83</ele>
        <time>2017-02-21T09:37:58Z</time>
      </trkpt>
      <trkpt lat="48.60457" lon="1.98376">
        <ele>94.35</ele>
        <time>2017-02-21T09:38:01Z</time>
      </trkpt>
      <trkpt lat="48.60453" lon="1.98376">
        <ele>95.31</ele>
        <time>2017-02-21T09:38:05Z</time>
      </trkpt>
      <trkpt lat="48.6044" lon="1.98384">
        <ele>94.83</ele>
        <time>2017-02-21T09:38:14Z</time>
      </trkpt>
      <trkpt lat="48.60416" lon="1.98393">
        <ele>94.35</ele>
        <time>2017-02-21T09:38:29Z</time>
      </trkpt>
      <trkpt lat="48.60395" lon="1.98403">
        <ele>94.83</ele>
        <time>2017-02-21T09:38:46Z</time>
      </trkpt>
      <trkpt lat="48.60383" lon="1.98406">
        <ele>95.31</ele>
        <time>2017-02-21T09:38:55Z</time>
      </trkpt>
      <trkpt lat="48.60375" lon="1.9841">
        <ele>97.23</ele>
        <time>2017-02-21T09:39:00Z</time>
      </trkpt>
      <trkpt lat="48.60354" lon="1.98423">
        <ele>97.23</ele>
        <time>2017-02-21T09:39:13Z</time>
      </trkpt>
      <trkpt lat="48.60347" lon="1.9843">
        <ele>99.15</ele>
        <time>2017-02-21T09:39:19Z</time>
      </trkpt>
      <trkpt lat="48.60329" lon="1.98448">
        <ele>98.67</ele>
        <time>2017-02-21T09:39:35Z</time>
      </trkpt>
      <trkpt lat="48.60324" lon="1.98453">
        <ele>100.11</ele>
        <time>2017-02-21T09:39:39Z</time>
      </trkpt>
      <trkpt lat="48.60312" lon="1.98463">
        <ele>99.15</ele>
        <time>2017-02-21T09:39:45Z</time>
      </trkpt>
      <trkpt lat="48.60308" lon="1.9847">
        <ele>100.11</ele>
        <time>2017-02-21T09:39:49Z</time>
      </trkpt>
      <trkpt lat="48.60304" lon="1.98476">
        <ele>99.63</ele>
        <time>2017-02-21T09:39:52Z</time>
      </trkpt>
      <trkpt lat="48.60294" lon="1.98498">
        <ele>98.19</ele>
        <time>2017-02-21T09:40:07Z</time>
      </trkpt>
      <trkpt lat="48.60292" lon="1.98501">
        <ele>98.19</ele>
        <time>2017-02-21T09:40:12Z</time>
      </trkpt>
      <trkpt lat="48.60278" lon="1.98527">
        <ele>97.71</ele>
        <time>2017-02-21T09:40:25Z</time>
      </trkpt>
      <trkpt lat="48.60266" lon="1.98548">
        <ele>97.71</ele>
        <time>2017-02-21T09:40:38Z</time>
      </trkpt>
      <trkpt lat="48.60258" lon="1.98557">
        <ele>98.67</ele>
        <time>2017-02-21T09:40:41Z</time>
      </trkpt>
      <trkpt lat="48.60236" lon="1.98576">
        <ele>98.67</ele>
        <time>2017-02-21T09:40:57Z</time>
      </trkpt>
      <trkpt lat="48.60226" lon="1.98584">
        <ele>98.19</ele>
        <time>2017-02-21T09:41:04Z</time>
      </trkpt>
      <trkpt lat="48.60209" lon="1.98607">
        <ele>100.11</ele>
        <time>2017-02-21T09:41:20Z</time>
      </trkpt>
      <trkpt lat="48.60203" lon="1.98613">
        <ele>99.63</ele>
        <time>2017-02-21T09:41:24Z</time>
      </trkpt>
      <trkpt lat="48.60193" lon="1.98626">
        <ele>100.6</ele>
        <time>2017-02-21T09:41:30Z</time>
      </trkpt>
      <trkpt lat="48.60168" lon="1.98649">
        <ele>101.08</ele>
        <time>2017-02-21T09:41:46Z</time>
      </trkpt>
      <trkpt lat="48.60155" lon="1.98663">
        <ele>101.56</ele>
        <time>2017-02-21T09:42:00Z</time>
      </trkpt>
      <trkpt lat="48.60138" lon="1.98677">
        <ele>103</ele>
        <time>2017-02-21T09:42:13Z</time>
      </trkpt>
      <trkpt lat="48.6012" lon="1.98702">
        <ele>102.52</ele>
        <time>2017-02-21T09:42:29Z</time>
      </trkpt>
      <trkpt lat="48.60114" lon="1.98705">
        <ele>103.48</ele>
        <time>2017-02-21T09:42:32Z</time>
      </trkpt>
      <trkpt lat="48.60093" lon="1.98713">
        <ele>102.52</ele>
        <time>2017-02-21T09:42:47Z</time>
      </trkpt>
      <trkpt lat="48.60068" lon="1.98733">
        <ele>101.56</ele>
        <time>2017-02-21T09:43:02Z</time>
      </trkpt>
      <trkpt lat="48.60044" lon="1.98742">
        <ele>100.6</ele>
        <time>2017-02-21T09:43:18Z</time>
      </trkpt>
      <trkpt lat="48.60021" lon="1.98754">
        <ele>100.11</ele>
        <time>2017-02-21T09:43:33Z</time>
      </trkpt>
      <trkpt lat="48.60015" lon="1.98754">
        <ele>99.63</ele>
        <time>2017-02-21T09:43:37Z</time>
      </trkpt>
      <trkpt lat="48.59993" lon="1.98755">
        <ele>100.6</ele>
        <time>2017-02-21T09:43:52Z</time>
      </trkpt>
      <trkpt lat="48.59979" lon="1.98755">
        <ele>100.6</ele>
        <time>2017-02-21T09:44:01Z</time>
      </trkpt>
      <trkpt lat="48.59969" lon="1.9876">
        <ele>100.6</ele>
        <time>2017-02-21T09:44:07Z</time>
      </trkpt>
      <trkpt lat="48.59956" lon="1.98765">
        <ele>101.56</ele>
        <time>2017-02-21T09:44:15Z</time>
      </trkpt>
      <trkpt lat="48.59937" lon="1.9877">
        <ele>101.56</ele>
        <time>2017-02-21T09:44:28Z</time>
      </trkpt>
      <trkpt lat="48.59915" lon="1.98773">
        <ele>103</ele>
        <time>2017-02-21T09:44:44Z</time>
      </trkpt>
      <trkpt lat="48.59913" lon="1.98774">
        <ele>103</ele>
        <time>2017-02-21T09:44:45Z</time>
      </trkpt>
      <trkpt lat="48.59907" lon="1.98775">
        <ele>102.52</ele>
        <time>2017-02-21T09:44:50Z</time>
      </trkpt>
      <trkpt lat="48.59883" lon="1.98784">
        <ele>103.96</ele>
        <time>2017-02-21T09:45:04Z</time>
      </trkpt>
      <trkpt lat="48.59866" lon="1.98788">
        <ele>103.96</ele>
        <time>2017-02-21T09:45:17Z</time>
      </trkpt>
      <trkpt lat="48.59859" lon="1.98786">
        <ele>103.96</ele>
        <time>2017-02-21T09:45:23Z</time>
      </trkpt>
      <trkpt lat="48.5985" lon="1.98789">
        <ele>103.96</ele>
        <time>2017-02-21T09:45:30Z</time>
      </trkpt>
      <trkpt lat="48.59827" lon="1.98796">
        <ele>105.88</ele>
        <time>2017-02-21T09:45:45Z</time>
      </trkpt>
      <trkpt lat="48.59816" lon="1.98801">
        <ele>105.88</ele>
        <time>2017-02-21T09:45:51Z</time>
      </trkpt>
      <trkpt lat="48.59791" lon="1.98802">
        <ele>107.81</ele>
        <time>2017-02-21T09:46:07Z</time>
      </trkpt>
      <trkpt lat="48.59777" lon="1.98796">
        <ele>108.29</ele>
        <time>2017-02-21T09:46:19Z</time>
      </trkpt>
      <trkpt lat="48.59775" lon="1.98795">
        <ele>108.29</ele>
        <time>2017-02-21T09:46:20Z</time>
      </trkpt>
      <trkpt lat="48.5976" lon="1.988">
        <ele>108.29</ele>
        <time>2017-02-21T09:46:29Z</time>
      </trkpt>
      <trkpt lat="48.59749" lon="1.98802">
        <ele>110.21</ele>
        <time>2017-02-21T09:46:35Z</time>
      </trkpt>
      <trkpt lat="48.59743" lon="1.98803">
        <ele>109.25</ele>
        <time>2017-02-21T09:46:39Z</time>
      </trkpt>
      <trkpt lat="48.59731" lon="1.98804">
        <ele>110.21</ele>
        <time>2017-02-21T09:46:45Z</time>
      </trkpt>
      <trkpt lat="48.59711" lon="1.98803">
        <ele>110.69</ele>
        <time>2017-02-21T09:46:59Z</time>
      </trkpt>
      <trkpt lat="48.59706" lon="1.98802">
        <ele>110.69</ele>
        <time>2017-02-21T09:47:02Z</time>
      </trkpt>
      <trkpt lat="48.59687" lon="1.98801">
        <ele>113.09</ele>
        <time>2017-02-21T09:47:15Z</time>
      </trkpt>
      <trkpt lat="48.59684" lon="1.98801">
        <ele>112.13</ele>
        <time>2017-02-21T09:47:18Z</time>
      </trkpt>
      <trkpt lat="48.59672" lon="1.98799">
        <ele>113.09</ele>
        <time>2017-02-21T09:47:26Z</time>
      </trkpt>
      <trkpt lat="48.59669" lon="1.98797">
        <ele>113.09</ele>
        <time>2017-02-21T09:47:29Z</time>
      </trkpt>
      <trkpt lat="48.59655" lon="1.98795">
        <ele>113.09</ele>
        <time>2017-02-21T09:47:39Z</time>
      </trkpt>
      <trkpt lat="48.59652" lon="1.98795">
        <ele>114.53</ele>
        <time>2017-02-21T09:47:41Z</time>
      </trkpt>
      <trkpt lat="48.5964" lon="1.98795">
        <ele>114.53</ele>
        <time>2017-02-21T09:47:51Z</time>
      </trkpt>
      <trkpt lat="48.59629" lon="1.98799">
        <ele>115.98</ele>
        <time>2017-02-21T09:47:57Z</time>
      </trkpt>
      <trkpt lat="48.59614" lon="1.98798">
        <ele>116.46</ele>
        <time>2017-02-21T09:48:08Z</time>
      </trkpt>
      <trkpt lat="48.59609" lon="1.98798">
        <ele>117.42</ele>
        <time>2017-02-21T09:48:12Z</time>
      </trkpt>
      <trkpt lat="48.59598" lon="1.98798">
        <ele>117.42</ele>
        <time>2017-02-21T09:48:21Z</time>
      </trkpt>
      <trkpt lat="48.5959" lon="1.98797">
        <ele>118.38</ele>
        <time>2017-02-21T09:48:29Z</time>
      </trkpt>
      <trkpt lat="48.5958" lon="1.98794">
        <ele>117.9</ele>
        <time>2017-02-21T09:48:40Z</time>
      </trkpt>
      <trkpt lat="48.59558" lon="1.98804">
        <ele>118.38</ele>
        <time>2017-02-21T09:48:54Z</time>
      </trkpt>
      <trkpt lat="48.59552" lon="1.98803">
        <ele>118.86</ele>
        <time>2017-02-21T09:49:07Z</time>
      </trkpt>
      <trkpt lat="48.59551" lon="1.98803">
        <ele>118.38</ele>
        <time>2017-02-21T09:49:20Z</time>
      </trkpt>
      <trkpt lat="48.5955" lon="1.98803">
        <ele>118.38</ele>
        <time>2017-02-21T09:49:34Z</time>
      </trkpt>
      <trkpt lat="48.5955" lon="1.98803">
        <ele>117.9</ele>
        <time>2017-02-21T09:49:50Z</time>
      </trkpt>
      <trkpt lat="48.5955" lon="1.98803">
        <ele>117.9</ele>
        <time>2017-02-21T09:50:12Z</time>
      </trkpt>
      <trkpt lat="48.5955" lon="1.98803">
        <ele>117.9</ele>
        <time>2017-02-21T09:50:27Z</time>
      </trkpt>
      <trkpt lat="48.59551" lon="1.98801">
        <ele>117.42</ele>
        <time>2017-02-21T09:50:43Z</time>
      </trkpt>
      <trkpt lat="48.59551" lon="1.98801">
        <ele>117.9</ele>
        <time>2017-02-21T09:51:04Z</time>
      </trkpt>
      <trkpt lat="48.59551" lon="1.988">
        <ele>117.42</ele>
        <time>2017-02-21T09:51:18Z</time>
      </trkpt>
      <trkpt lat="48.59553" lon="1.98797">
        <ele>118.86</ele>
        <time>2017-02-21T09:51:25Z</time>
      </trkpt>
      <trkpt lat="48.59564" lon="1.98778">
        <ele>119.82</ele>
        <time>2017-02-21T09:51:39Z</time>
      </trkpt>
      <trkpt lat="48.59567" lon="1.98776">
        <ele>118.86</ele>
        <time>2017-02-21T09:51:41Z</time>
      </trkpt>
      <trkpt lat="48.59582" lon="1.98762">
        <ele>116.94</ele>
        <time>2017-02-21T09:51:55Z</time>
      </trkpt>
      <trkpt lat="48.5959" lon="1.98752">
        <ele>115.98</ele>
        <time>2017-02-21T09:52:05Z</time>
      </trkpt>
      <trkpt lat="48.59593" lon="1.98746">
        <ele>117.42</ele>
        <time>2017-02-21T09:52:08Z</time>
      </trkpt>
      <trkpt lat="48.59599" lon="1.98737">
        <ele>117.42</ele>
        <time>2017-02-21T09:52:13Z</time>
      </trkpt>
      <trkpt lat="48.59604" lon="1.9873">
        <ele>115.98</ele>
        <time>2017-02-21T09:52:16Z</time>
      </trkpt>
      <trkpt lat="48.59606" lon="1.98728">
        <ele>117.9</ele>
        <time>2017-02-21T09:52:18Z</time>
      </trkpt>
      <trkpt lat="48.59618" lon="1.98707">
        <ele>117.9</ele>
        <time>2017-02-21T09:52:32Z</time>
      </trkpt>
      <trkpt lat="48.59618" lon="1.98707">
        <ele>116.94</ele>
        <time>2017-02-21T09:52:33Z</time>
      </trkpt>
      <trkpt lat="48.59633" lon="1.98685">
        <ele>118.86</ele>
        <time>2017-02-21T09:52:48Z</time>
      </trkpt>
      <trkpt lat="48.59655" lon="1.98697">
        <ele>118.38</ele>
        <time>2017-02-21T09:53:03Z</time>
      </trkpt>
      <trkpt lat="48.59663" lon="1.98697">
        <ele>118.86</ele>
        <time>2017-02-21T09:53:07Z</time>
      </trkpt>
      <trkpt lat="48.59675" lon="1.98696">
        <ele>119.34</ele>
        <time>2017-02-21T09:53:15Z</time>
      </trkpt>
      <trkpt lat="48.59683" lon="1.98684">
        <ele>119.34</ele>
        <time>2017-02-21T09:53:25Z</time>
      </trkpt>
      <trkpt lat="48.59687" lon="1.98671">
        <ele>122.22</ele>
        <time>2017-02-21T09:53:33Z</time>
      </trkpt>
      <trkpt lat="48.59688" lon="1.9867">
        <ele>121.74</ele>
        <time>2017-02-21T09:53:34Z</time>
      </trkpt>
      <trkpt lat="48.59691" lon="1.98663">
        <ele>122.71</ele>
        <time>2017-02-21T09:53:40Z</time>
      </trkpt>
      <trkpt lat="48.59696" lon="1.98652">
        <ele>123.67</ele>
        <time>2017-02-21T09:53:47Z</time>
      </trkpt>
      <trkpt lat="48.597" lon="1.98636">
        <ele>127.03</ele>
        <time>2017-02-21T09:53:56Z</time>
      </trkpt>
      <trkpt lat="48.597" lon="1.98634">
        <ele>127.99</ele>
        <time>2017-02-21T09:53:58Z</time>
      </trkpt>
      <trkpt lat="48.59703" lon="1.98616">
        <ele>131.36</ele>
        <time>2017-02-21T09:54:09Z</time>
      </trkpt>
      <trkpt lat="48.59703" lon="1.98615">
        <ele>131.84</ele>
        <time>2017-02-21T09:54:10Z</time>
      </trkpt>
      <trkpt lat="48.59702" lon="1.98605">
        <ele>133.76</ele>
        <time>2017-02-21T09:54:17Z</time>
      </trkpt>
      <trkpt lat="48.597" lon="1.98596">
        <ele>135.68</ele>
        <time>2017-02-21T09:54:22Z</time>
      </trkpt>
      <trkpt lat="48.597" lon="1.9859">
        <ele>137.13</ele>
        <time>2017-02-21T09:54:26Z</time>
      </trkpt>
      <trkpt lat="48.59703" lon="1.98576">
        <ele>138.57</ele>
        <time>2017-02-21T09:54:33Z</time>
      </trkpt>
      <trkpt lat="48.59718" lon="1.98566">
        <ele>138.57</ele>
        <time>2017-02-21T09:54:48Z</time>
      </trkpt>
      <trkpt lat="48.59721" lon="1.98564">
        <ele>138.09</ele>
        <time>2017-02-21T09:54:57Z</time>
      </trkpt>
      <trkpt lat="48.59738" lon="1.98547">
        <ele>138.09</ele>
        <time>2017-02-21T09:55:13Z</time>
      </trkpt>
      <trkpt lat="48.59759" lon="1.98539">
        <ele>138.09</ele>
        <time>2017-02-21T09:55:28Z</time>
      </trkpt>
      <trkpt lat="48.59773" lon="1.98531">
        <ele>138.09</ele>
        <time>2017-02-21T09:55:38Z</time>
      </trkpt>
      <trkpt lat="48.59781" lon="1.98522">
        <ele>136.64</ele>
        <time>2017-02-21T09:55:45Z</time>
      </trkpt>
      <trkpt lat="48.59798" lon="1.98514">
        <ele>133.76</ele>
        <time>2017-02-21T09:56:00Z</time>
      </trkpt>
      <trkpt lat="48.59811" lon="1.98511">
        <ele>131.36</ele>
        <time>2017-02-21T09:56:11Z</time>
      </trkpt>
      <trkpt lat="48.59822" lon="1.98512">
        <ele>127.99</ele>
        <time>2017-02-21T09:56:22Z</time>
      </trkpt>
      <trkpt lat="48.5983" lon="1.98511">
        <ele>126.07</ele>
        <time>2017-02-21T09:56:30Z</time>
      </trkpt>
      <trkpt lat="48.59848" lon="1.98491">
        <ele>122.22</ele>
        <time>2017-02-21T09:56:46Z</time>
      </trkpt>
      <trkpt lat="48.59856" lon="1.98476">
        <ele>120.3</ele>
        <time>2017-02-21T09:56:59Z</time>
      </trkpt>
      <trkpt lat="48.59852" lon="1.98458">
        <ele>119.34</ele>
        <time>2017-02-21T09:57:11Z</time>
      </trkpt>
      <trkpt lat="48.59844" lon="1.98434">
        <ele>119.34</ele>
        <time>2017-02-21T09:57:25Z</time>
      </trkpt>
      <trkpt lat="48.59846" lon="1.98418">
        <ele>117.42</ele>
        <time>2017-02-21T09:57:35Z</time>
      </trkpt>
      <trkpt lat="48.59848" lon="1.98412">
        <ele>116.46</ele>
        <time>2017-02-21T09:57:38Z</time>
      </trkpt>
      <trkpt lat="48.59853" lon="1.98398">
        <ele>117.9</ele>
        <time>2017-02-21T09:57:46Z</time>
      </trkpt>
      <trkpt lat="48.5986" lon="1.98375">
        <ele>117.42</ele>
        <time>2017-02-21T09:58:01Z</time>
      </trkpt>
      <trkpt lat="48.59865" lon="1.98363">
        <ele>117.42</ele>
        <time>2017-02-21T09:58:07Z</time>
      </trkpt>
      <trkpt lat="48.59877" lon="1.98333">
        <ele>118.38</ele>
        <time>2017-02-21T09:58:20Z</time>
      </trkpt>
      <trkpt lat="48.59887" lon="1.98315">
        <ele>117.42</ele>
        <time>2017-02-21T09:58:33Z</time>
      </trkpt>
      <trkpt lat="48.59889" lon="1.98299">
        <ele>118.38</ele>
        <time>2017-02-21T09:58:43Z</time>
      </trkpt>
      <trkpt lat="48.5988" lon="1.98283">
        <ele>119.34</ele>
        <time>2017-02-21T09:58:55Z</time>
      </trkpt>
      <trkpt lat="48.59875" lon="1.9828">
        <ele>120.3</ele>
        <time>2017-02-21T09:59:00Z</time>
      </trkpt>
      <trkpt lat="48.5987" lon="1.98277">
        <ele>120.3</ele>
        <time>2017-02-21T09:59:04Z</time>
      </trkpt>
      <trkpt lat="48.59848" lon="1.98271">
        <ele>122.71</ele>
        <time>2017-02-21T09:59:20Z</time>
      </trkpt>
      <trkpt lat="48.59835" lon="1.98269">
        <ele>122.71</ele>
        <time>2017-02-21T09:59:28Z</time>
      </trkpt>
      <trkpt lat="48.59825" lon="1.98264">
        <ele>124.63</ele>
        <time>2017-02-21T09:59:36Z</time>
      </trkpt>
      <trkpt lat="48.59817" lon="1.98262">
        <ele>125.59</ele>
        <time>2017-02-21T09:59:41Z</time>
      </trkpt>
      <trkpt lat="48.59814" lon="1.98261">
        <ele>126.07</ele>
        <time>2017-02-21T09:59:43Z</time>
      </trkpt>
      <trkpt lat="48.59796" lon="1.98258">
        <ele>128.47</ele>
        <time>2017-02-21T09:59:57Z</time>
      </trkpt>
      <trkpt lat="48.5979" lon="1.98254">
        <ele>129.92</ele>
        <time>2017-02-21T10:00:03Z</time>
      </trkpt>
      <trkpt lat="48.59786" lon="1.9825">
        <ele>131.36</ele>
        <time>2017-02-21T10:00:07Z</time>
      </trkpt>
      <trkpt lat="48.59782" lon="1.98245">
        <ele>132.8</ele>
        <time>2017-02-21T10:00:11Z</time>
      </trkpt>
      <trkpt lat="48.59779" lon="1.98236">
        <ele>133.28</ele>
        <time>2017-02-21T10:00:17Z</time>
      </trkpt>
      <trkpt lat="48.59761" lon="1.98223">
        <ele>134.24</ele>
        <time>2017-02-21T10:00:31Z</time>
      </trkpt>
      <trkpt lat="48.59747" lon="1.98217">
        <ele>134.72</ele>
        <time>2017-02-21T10:00:43Z</time>
      </trkpt>
      <trkpt lat="48.5973" lon="1.98209">
        <ele>137.61</ele>
        <time>2017-02-21T10:00:54Z</time>
      </trkpt>
      <trkpt lat="48.59724" lon="1.98206">
        <ele>139.05</ele>
        <time>2017-02-21T10:01:00Z</time>
      </trkpt>
      <trkpt lat="48.59716" lon="1.98202">
        <ele>140.01</ele>
        <time>2017-02-21T10:01:07Z</time>
      </trkpt>
      <trkpt lat="48.59697" lon="1.98193">
        <ele>141.45</ele>
        <time>2017-02-21T10:01:18Z</time>
      </trkpt>
      <trkpt lat="48.59686" lon="1.98185">
        <ele>140.97</ele>
        <time>2017-02-21T10:01:26Z</time>
      </trkpt>
      <trkpt lat="48.5968" lon="1.98177">
        <ele>141.93</ele>
        <time>2017-02-21T10:01:31Z</time>
      </trkpt>
      <trkpt lat="48.59676" lon="1.98171">
        <ele>141.93</ele>
        <time>2017-02-21T10:01:35Z</time>
      </trkpt>
      <trkpt lat="48.59675" lon="1.98164">
        <ele>143.37</ele>
        <time>2017-02-21T10:01:39Z</time>
      </trkpt>
      <trkpt lat="48.5967" lon="1.98157">
        <ele>142.89</ele>
        <time>2017-02-21T10:01:43Z</time>
      </trkpt>
      <trkpt lat="48.59658" lon="1.98137">
        <ele>143.37</ele>
        <time>2017-02-21T10:01:55Z</time>
      </trkpt>
      <trkpt lat="48.59649" lon="1.98126">
        <ele>143.37</ele>
        <time>2017-02-21T10:02:03Z</time>
      </trkpt>
      <trkpt lat="48.59634" lon="1.98111">
        <ele>143.37</ele>
        <time>2017-02-21T10:02:13Z</time>
      </trkpt>
      <trkpt lat="48.59629" lon="1.98103">
        <ele>143.85</ele>
        <time>2017-02-21T10:02:18Z</time>
      </trkpt>
      <trkpt lat="48.5962" lon="1.98088">
        <ele>143.85</ele>
        <time>2017-02-21T10:02:26Z</time>
      </trkpt>
      <trkpt lat="48.59604" lon="1.9806">
        <ele>144.82</ele>
        <time>2017-02-21T10:02:42Z</time>
      </trkpt>
      <trkpt lat="48.59592" lon="1.9805">
        <ele>146.74</ele>
        <time>2017-02-21T10:02:52Z</time>
      </trkpt>
      <trkpt lat="48.59582" lon="1.98046">
        <ele>146.74</ele>
        <time>2017-02-21T10:02:59Z</time>
      </trkpt>
      <trkpt lat="48.59574" lon="1.98043">
        <ele>147.22</ele>
        <time>2017-02-21T10:03:04Z</time>
      </trkpt>
      <trkpt lat="48.59549" lon="1.9803">
        <ele>148.66</ele>
        <time>2017-02-21T10:03:19Z</time>
      </trkpt>
      <trkpt lat="48.59547" lon="1.98029">
        <ele>148.66</ele>
        <time>2017-02-21T10:03:20Z</time>
      </trkpt>
      <trkpt lat="48.59543" lon="1.98025">
        <ele>148.66</ele>
        <time>2017-02-21T10:03:23Z</time>
      </trkpt>
      <trkpt lat="48.59533" lon="1.98016">
        <ele>149.14</ele>
        <time>2017-02-21T10:03:29Z</time>
      </trkpt>
      <trkpt lat="48.59521" lon="1.98002">
        <ele>149.14</ele>
        <time>2017-02-21T10:03:42Z</time>
      </trkpt>
      <trkpt lat="48.59519" lon="1.98">
        <ele>149.14</ele>
        <time>2017-02-21T10:03:56Z</time>
      </trkpt>
      <trkpt lat="48.59518" lon="1.98002">
        <ele>150.1</ele>
        <time>2017-02-21T10:04:06Z</time>
      </trkpt>
      <trkpt lat="48.59517" lon="1.98004">
        <ele>150.1</ele>
        <time>2017-02-21T10:04:33Z</time>
      </trkpt>
      <trkpt lat="48.5952" lon="1.98004">
        <ele>150.1</ele>
        <time>2017-02-21T10:04:58Z</time>
      </trkpt>
      <trkpt lat="48.59521" lon="1.98003">
        <ele>149.14</ele>
        <time>2017-02-21T10:05:08Z</time>
      </trkpt>
      <trkpt lat="48.59521" lon="1.98003">
        <ele>149.14</ele>
        <time>2017-02-21T10:05:26Z</time>
      </trkpt>
      <trkpt lat="48.59522" lon="1.98005">
        <ele>149.14</ele>
        <time>2017-02-21T10:05:50Z</time>
      </trkpt>
      <trkpt lat="48.59522" lon="1.98005">
        <ele>149.62</ele>
        <time>2017-02-21T10:06:17Z</time>
      </trkpt>
      <trkpt lat="48.59522" lon="1.98004">
        <ele>149.14</ele>
        <time>2017-02-21T10:06:42Z</time>
      </trkpt>
      <trkpt lat="48.59522" lon="1.98003">
        <ele>148.66</ele>
        <time>2017-02-21T10:07:05Z</time>
      </trkpt>
      <trkpt lat="48.59525" lon="1.98005">
        <ele>149.62</ele>
        <time>2017-02-21T10:07:21Z</time>
      </trkpt>
      <trkpt lat="48.59529" lon="1.98006">
        <ele>149.14</ele>
        <time>2017-02-21T10:07:45Z</time>
      </trkpt>
      <trkpt lat="48.59523" lon="1.98002">
        <ele>149.62</ele>
        <time>2017-02-21T10:07:58Z</time>
      </trkpt>
      <trkpt lat="48.59518" lon="1.97998">
        <ele>149.14</ele>
        <time>2017-02-21T10:08:05Z</time>
      </trkpt>
      <trkpt lat="48.59517" lon="1.97994">
        <ele>149.14</ele>
        <time>2017-02-21T10:08:08Z</time>
      </trkpt>
      <trkpt lat="48.59513" lon="1.97982">
        <ele>149.62</ele>
        <time>2017-02-21T10:08:16Z</time>
      </trkpt>
      <trkpt lat="48.59512" lon="1.9797">
        <ele>149.62</ele>
        <time>2017-02-21T10:08:23Z</time>
      </trkpt>
      <trkpt lat="48.59511" lon="1.97965">
        <ele>149.14</ele>
        <time>2017-02-21T10:08:26Z</time>
      </trkpt>
      <trkpt lat="48.59509" lon="1.97956">
        <ele>149.62</ele>
        <time>2017-02-21T10:08:30Z</time>
      </trkpt>
      <trkpt lat="48.59507" lon="1.97953">
        <ele>149.14</ele>
        <time>2017-02-21T10:08:32Z</time>
      </trkpt>
      <trkpt lat="48.59504" lon="1.97932">
        <ele>149.62</ele>
        <time>2017-02-21T10:08:44Z</time>
      </trkpt>
      <trkpt lat="48.59498" lon="1.97914">
        <ele>149.62</ele>
        <time>2017-02-21T10:08:54Z</time>
      </trkpt>
      <trkpt lat="48.59489" lon="1.97878">
        <ele>150.1</ele>
        <time>2017-02-21T10:09:11Z</time>
      </trkpt>
      <trkpt lat="48.59479" lon="1.97855">
        <ele>150.1</ele>
        <time>2017-02-21T10:09:23Z</time>
      </trkpt>
      <trkpt lat="48.59474" lon="1.9784">
        <ele>149.62</ele>
        <time>2017-02-21T10:09:32Z</time>
      </trkpt>
      <trkpt lat="48.59467" lon="1.97832">
        <ele>150.1</ele>
        <time>2017-02-21T10:09:38Z</time>
      </trkpt>
      <trkpt lat="48.59459" lon="1.97808">
        <ele>150.1</ele>
        <time>2017-02-21T10:09:50Z</time>
      </trkpt>
      <trkpt lat="48.59451" lon="1.97781">
        <ele>149.62</ele>
        <time>2017-02-21T10:10:04Z</time>
      </trkpt>
      <trkpt lat="48.5945" lon="1.97777">
        <ele>149.14</ele>
        <time>2017-02-21T10:10:06Z</time>
      </trkpt>
      <trkpt lat="48.59446" lon="1.97757">
        <ele>148.66</ele>
        <time>2017-02-21T10:10:14Z</time>
      </trkpt>
      <trkpt lat="48.59444" lon="1.9775">
        <ele>148.18</ele>
        <time>2017-02-21T10:10:17Z</time>
      </trkpt>
      <trkpt lat="48.59439" lon="1.97726">
        <ele>147.22</ele>
        <time>2017-02-21T10:10:29Z</time>
      </trkpt>
      <trkpt lat="48.59438" lon="1.9772">
        <ele>146.74</ele>
        <time>2017-02-21T10:10:32Z</time>
      </trkpt>
      <trkpt lat="48.59435" lon="1.97693">
        <ele>143.85</ele>
        <time>2017-02-21T10:10:44Z</time>
      </trkpt>
      <trkpt lat="48.59432" lon="1.97679">
        <ele>142.41</ele>
        <time>2017-02-21T10:10:52Z</time>
      </trkpt>
      <trkpt lat="48.59431" lon="1.97672">
        <ele>141.93</ele>
        <time>2017-02-21T10:10:55Z</time>
      </trkpt>
      <trkpt lat="48.5943" lon="1.9766">
        <ele>141.45</ele>
        <time>2017-02-21T10:11:00Z</time>
      </trkpt>
      <trkpt lat="48.59433" lon="1.97631">
        <ele>139.53</ele>
        <time>2017-02-21T10:11:15Z</time>
      </trkpt>
      <trkpt lat="48.59433" lon="1.97629">
        <ele>139.05</ele>
        <time>2017-02-21T10:11:16Z</time>
      </trkpt>
      <trkpt lat="48.59434" lon="1.9762">
        <ele>138.57</ele>
        <time>2017-02-21T10:11:20Z</time>
      </trkpt>
      <trkpt lat="48.59437" lon="1.97611">
        <ele>137.61</ele>
        <time>2017-02-21T10:11:24Z</time>
      </trkpt>
      <trkpt lat="48.59444" lon="1.97592">
        <ele>136.16</ele>
        <time>2017-02-21T10:11:37Z</time>
      </trkpt>
      <trkpt lat="48.59456" lon="1.97567">
        <ele>134.72</ele>
        <time>2017-02-21T10:11:49Z</time>
      </trkpt>
      <trkpt lat="48.59457" lon="1.97562">
        <ele>134.24</ele>
        <time>2017-02-21T10:11:52Z</time>
      </trkpt>
      <trkpt lat="48.59473" lon="1.97541">
        <ele>133.28</ele>
        <time>2017-02-21T10:12:06Z</time>
      </trkpt>
      <trkpt lat="48.59474" lon="1.97534">
        <ele>133.28</ele>
        <time>2017-02-21T10:12:11Z</time>
      </trkpt>
      <trkpt lat="48.59476" lon="1.97513">
        <ele>132.32</ele>
        <time>2017-02-21T10:12:19Z</time>
      </trkpt>
      <trkpt lat="48.59475" lon="1.97501">
        <ele>131.36</ele>
        <time>2017-02-21T10:12:26Z</time>
      </trkpt>
      <trkpt lat="48.59474" lon="1.97491">
        <ele>131.36</ele>
        <time>2017-02-21T10:12:31Z</time>
      </trkpt>
      <trkpt lat="48.59471" lon="1.9746">
        <ele>129.92</ele>
        <time>2017-02-21T10:12:44Z</time>
      </trkpt>
      <trkpt lat="48.59472" lon="1.97455">
        <ele>129.92</ele>
        <time>2017-02-21T10:12:47Z</time>
      </trkpt>
      <trkpt lat="48.59477" lon="1.9743">
        <ele>129.43</ele>
        <time>2017-02-21T10:13:03Z</time>
      </trkpt>
      <trkpt lat="48.5948" lon="1.97425">
        <ele>128.95</ele>
        <time>2017-02-21T10:13:13Z</time>
      </trkpt>
      <trkpt lat="48.59481" lon="1.97422">
        <ele>129.43</ele>
        <time>2017-02-21T10:13:26Z</time>
      </trkpt>
      <trkpt lat="48.59486" lon="1.97415">
        <ele>129.43</ele>
        <time>2017-02-21T10:13:31Z</time>
      </trkpt>
      <trkpt lat="48.59492" lon="1.97406">
        <ele>129.43</ele>
        <time>2017-02-21T10:13:36Z</time>
      </trkpt>
      <trkpt lat="48.59504" lon="1.97382">
        <ele>129.43</ele>
        <time>2017-02-21T10:13:50Z</time>
      </trkpt>
      <trkpt lat="48.59513" lon="1.97362">
        <ele>129.92</ele>
        <time>2017-02-21T10:14:02Z</time>
      </trkpt>
      <trkpt lat="48.59519" lon="1.97353">
        <ele>128.95</ele>
        <time>2017-02-21T10:14:07Z</time>
      </trkpt>
      <trkpt lat="48.59529" lon="1.97334">
        <ele>129.92</ele>
        <time>2017-02-21T10:14:20Z</time>
      </trkpt>
      <trkpt lat="48.59532" lon="1.97332">
        <ele>130.88</ele>
        <time>2017-02-21T10:14:22Z</time>
      </trkpt>
      <trkpt lat="48.59534" lon="1.97326">
        <ele>130.4</ele>
        <time>2017-02-21T10:14:26Z</time>
      </trkpt>
      <trkpt lat="48.59537" lon="1.97321">
        <ele>131.84</ele>
        <time>2017-02-21T10:14:29Z</time>
      </trkpt>
      <trkpt lat="48.59541" lon="1.97313">
        <ele>131.84</ele>
        <time>2017-02-21T10:14:33Z</time>
      </trkpt>
      <trkpt lat="48.59546" lon="1.97303">
        <ele>132.8</ele>
        <time>2017-02-21T10:14:39Z</time>
      </trkpt>
      <trkpt lat="48.59548" lon="1.97299">
        <ele>132.32</ele>
        <time>2017-02-21T10:14:42Z</time>
      </trkpt>
      <trkpt lat="48.5956" lon="1.97274">
        <ele>132.8</ele>
        <time>2017-02-21T10:14:57Z</time>
      </trkpt>
      <trkpt lat="48.59573" lon="1.97242">
        <ele>130.4</ele>
        <time>2017-02-21T10:15:11Z</time>
      </trkpt>
      <trkpt lat="48.59586" lon="1.97218">
        <ele>127.99</ele>
        <time>2017-02-21T10:15:27Z</time>
      </trkpt>
      <trkpt lat="48.5959" lon="1.97205">
        <ele>127.99</ele>
        <time>2017-02-21T10:15:34Z</time>
      </trkpt>
      <trkpt lat="48.59596" lon="1.97193">
        <ele>127.03</ele>
        <time>2017-02-21T10:15:41Z</time>
      </trkpt>
      <trkpt lat="48.59599" lon="1.9719">
        <ele>127.99</ele>
        <time>2017-02-21T10:15:43Z</time>
      </trkpt>
      <trkpt lat="48.59606" lon="1.97173">
        <ele>127.99</ele>
        <time>2017-02-21T10:15:52Z</time>
      </trkpt>
      <trkpt lat="48.59624" lon="1.97141">
        <ele>127.03</ele>
        <time>2017-02-21T10:16:07Z</time>
      </trkpt>
      <trkpt lat="48.59638" lon="1.97121">
        <ele>125.59</ele>
        <time>2017-02-21T10:16:21Z</time>
      </trkpt>
      <trkpt lat="48.5964" lon="1.97112">
        <ele>124.63</ele>
        <time>2017-02-21T10:16:26Z</time>
      </trkpt>
      <trkpt lat="48.59645" lon="1.97099">
        <ele>125.11</ele>
        <time>2017-02-21T10:16:32Z</time>
      </trkpt>
      <trkpt lat="48.59647" lon="1.97091">
        <ele>124.63</ele>
        <time>2017-02-21T10:16:35Z</time>
      </trkpt>
      <trkpt lat="48.59658" lon="1.97069">
        <ele>123.67</ele>
        <time>2017-02-21T10:16:50Z</time>
      </trkpt>
      <trkpt lat="48.59661" lon="1.97064">
        <ele>124.63</ele>
        <time>2017-02-21T10:16:54Z</time>
      </trkpt>
      <trkpt lat="48.59664" lon="1.97055">
        <ele>124.63</ele>
        <time>2017-02-21T10:16:58Z</time>
      </trkpt>
      <trkpt lat="48.59671" lon="1.97036">
        <ele>125.59</ele>
        <time>2017-02-21T10:17:05Z</time>
      </trkpt>
      <trkpt lat="48.59672" lon="1.97034">
        <ele>124.63</ele>
        <time>2017-02-21T10:17:06Z</time>
      </trkpt>
      <trkpt lat="48.59679" lon="1.97019">
        <ele>125.11</ele>
        <time>2017-02-21T10:17:15Z</time>
      </trkpt>
      <trkpt lat="48.59681" lon="1.97013">
        <ele>125.11</ele>
        <time>2017-02-21T10:17:18Z</time>
      </trkpt>
      <trkpt lat="48.59692" lon="1.96995">
        <ele>127.03</ele>
        <time>2017-02-21T10:17:29Z</time>
      </trkpt>
      <trkpt lat="48.59696" lon="1.96988">
        <ele>127.99</ele>
        <time>2017-02-21T10:17:37Z</time>
      </trkpt>
      <trkpt lat="48.59696" lon="1.96986">
        <ele>127.99</ele>
        <time>2017-02-21T10:17:39Z</time>
      </trkpt>
      <trkpt lat="48.597" lon="1.96971">
        <ele>128.95</ele>
        <time>2017-02-21T10:17:46Z</time>
      </trkpt>
      <trkpt lat="48.59703" lon="1.96967">
        <ele>128.95</ele>
        <time>2017-02-21T10:17:49Z</time>
      </trkpt>
      <trkpt lat="48.59715" lon="1.96943">
        <ele>129.92</ele>
        <time>2017-02-21T10:18:02Z</time>
      </trkpt>
      <trkpt lat="48.59716" lon="1.96941">
        <ele>131.84</ele>
        <time>2017-02-21T10:18:03Z</time>
      </trkpt>
      <trkpt lat="48.5972" lon="1.9693">
        <ele>131.36</ele>
        <time>2017-02-21T10:18:10Z</time>
      </trkpt>
      <trkpt lat="48.59732" lon="1.9691">
        <ele>132.32</ele>
        <time>2017-02-21T10:18:26Z</time>
      </trkpt>
      <trkpt lat="48.59727" lon="1.96898">
        <ele>132.8</ele>
        <time>2017-02-21T10:18:38Z</time>
      </trkpt>
      <trkpt lat="48.59712" lon="1.96891">
        <ele>131.36</ele>
        <time>2017-02-21T10:18:53Z</time>
      </trkpt>
      <trkpt lat="48.59694" lon="1.96874">
        <ele>130.4</ele>
        <time>2017-02-21T10:19:10Z</time>
      </trkpt>
      <trkpt lat="48.5969" lon="1.96867">
        <ele>129.43</ele>
        <time>2017-02-21T10:19:15Z</time>
      </trkpt>
      <trkpt lat="48.59677" lon="1.96848">
        <ele>129.43</ele>
        <time>2017-02-21T10:19:30Z</time>
      </trkpt>
      <trkpt lat="48.59676" lon="1.96846">
        <ele>131.84</ele>
        <time>2017-02-21T10:19:32Z</time>
      </trkpt>
      <trkpt lat="48.5967" lon="1.96839">
        <ele>132.32</ele>
        <time>2017-02-21T10:19:38Z</time>
      </trkpt>
      <trkpt lat="48.59654" lon="1.96825">
        <ele>133.28</ele>
        <time>2017-02-21T10:19:50Z</time>
      </trkpt>
      <trkpt lat="48.59635" lon="1.96812">
        <ele>133.76</ele>
        <time>2017-02-21T10:20:04Z</time>
      </trkpt>
      <trkpt lat="48.59619" lon="1.96795">
        <ele>134.24</ele>
        <time>2017-02-21T10:20:19Z</time>
      </trkpt>
      <trkpt lat="48.59615" lon="1.96791">
        <ele>134.72</ele>
        <time>2017-02-21T10:20:23Z</time>
      </trkpt>
      <trkpt lat="48.59604" lon="1.96775">
        <ele>134.72</ele>
        <time>2017-02-21T10:20:34Z</time>
      </trkpt>
      <trkpt lat="48.59596" lon="1.96765">
        <ele>134.72</ele>
        <time>2017-02-21T10:20:41Z</time>
      </trkpt>
      <trkpt lat="48.59576" lon="1.96744">
        <ele>134.72</ele>
        <time>2017-02-21T10:20:59Z</time>
      </trkpt>
      <trkpt lat="48.59572" lon="1.9674">
        <ele>136.16</ele>
        <time>2017-02-21T10:21:03Z</time>
      </trkpt>
      <trkpt lat="48.59564" lon="1.9673">
        <ele>135.68</ele>
        <time>2017-02-21T10:21:11Z</time>
      </trkpt>
      <trkpt lat="48.59562" lon="1.96729">
        <ele>135.68</ele>
        <time>2017-02-21T10:21:13Z</time>
      </trkpt>
      <trkpt lat="48.59543" lon="1.96708">
        <ele>136.64</ele>
        <time>2017-02-21T10:21:28Z</time>
      </trkpt>
      <trkpt lat="48.59527" lon="1.96691">
        <ele>137.13</ele>
        <time>2017-02-21T10:21:42Z</time>
      </trkpt>
      <trkpt lat="48.59514" lon="1.9668">
        <ele>138.09</ele>
        <time>2017-02-21T10:21:53Z</time>
      </trkpt>
      <trkpt lat="48.5951" lon="1.96675">
        <ele>139.05</ele>
        <time>2017-02-21T10:21:57Z</time>
      </trkpt>
      <trkpt lat="48.59496" lon="1.96662">
        <ele>139.53</ele>
        <time>2017-02-21T10:22:12Z</time>
      </trkpt>
      <trkpt lat="48.59481" lon="1.96649">
        <ele>138.57</ele>
        <time>2017-02-21T10:22:25Z</time>
      </trkpt>
      <trkpt lat="48.59468" lon="1.96642">
        <ele>137.13</ele>
        <time>2017-02-21T10:22:36Z</time>
      </trkpt>
      <trkpt lat="48.59458" lon="1.96635">
        <ele>135.68</ele>
        <time>2017-02-21T10:22:45Z</time>
      </trkpt>
      <trkpt lat="48.59453" lon="1.96632">
        <ele>135.68</ele>
        <time>2017-02-21T10:22:49Z</time>
      </trkpt>
      <trkpt lat="48.59441" lon="1.9662">
        <ele>135.68</ele>
        <time>2017-02-21T10:22:59Z</time>
      </trkpt>
      <trkpt lat="48.59438" lon="1.96616">
        <ele>135.2</ele>
        <time>2017-02-21T10:23:03Z</time>
      </trkpt>
      <trkpt lat="48.59424" lon="1.96596">
        <ele>132.8</ele>
        <time>2017-02-21T10:23:18Z</time>
      </trkpt>
      <trkpt lat="48.59409" lon="1.96576">
        <ele>130.4</ele>
        <time>2017-02-21T10:23:32Z</time>
      </trkpt>
      <trkpt lat="48.59388" lon="1.96561">
        <ele>127.03</ele>
        <time>2017-02-21T10:23:48Z</time>
      </trkpt>
      <trkpt lat="48.59387" lon="1.9656">
        <ele>127.03</ele>
        <time>2017-02-21T10:23:49Z</time>
      </trkpt>
      <trkpt lat="48.59368" lon="1.96543">
        <ele>124.63</ele>
        <time>2017-02-21T10:24:04Z</time>
      </trkpt>
      <trkpt lat="48.5935" lon="1.96526">
        <ele>123.19</ele>
        <time>2017-02-21T10:24:19Z</time>
      </trkpt>
      <trkpt lat="48.59333" lon="1.96506">
        <ele>122.22</ele>
        <time>2017-02-21T10:24:34Z</time>
      </trkpt>
      <trkpt lat="48.59327" lon="1.96499">
        <ele>121.74</ele>
        <time>2017-02-21T10:24:39Z</time>
      </trkpt>
      <trkpt lat="48.59321" lon="1.96496">
        <ele>121.26</ele>
        <time>2017-02-21T10:24:43Z</time>
      </trkpt>
      <trkpt lat="48.59317" lon="1.96495">
        <ele>120.78</ele>
        <time>2017-02-21T10:24:46Z</time>
      </trkpt>
      <trkpt lat="48.59303" lon="1.96486">
        <ele>119.34</ele>
        <time>2017-02-21T10:24:57Z</time>
      </trkpt>
      <trkpt lat="48.59284" lon="1.96483">
        <ele>116.46</ele>
        <time>2017-02-21T10:25:12Z</time>
      </trkpt>
      <trkpt lat="48.59276" lon="1.96486">
        <ele>115.5</ele>
        <time>2017-02-21T10:25:18Z</time>
      </trkpt>
      <trkpt lat="48.59258" lon="1.965">
        <ele>113.57</ele>
        <time>2017-02-21T10:25:34Z</time>
      </trkpt>
      <trkpt lat="48.59243" lon="1.96522">
        <ele>111.65</ele>
        <time>2017-02-21T10:25:49Z</time>
      </trkpt>
      <trkpt lat="48.59228" lon="1.96532">
        <ele>109.73</ele>
        <time>2017-02-21T10:26:03Z</time>
      </trkpt>
      <trkpt lat="48.59222" lon="1.9654">
        <ele>108.77</ele>
        <time>2017-02-21T10:26:08Z</time>
      </trkpt>
      <trkpt lat="48.59209" lon="1.9656">
        <ele>108.29</ele>
        <time>2017-02-21T10:26:21Z</time>
      </trkpt>
      <trkpt lat="48.59205" lon="1.96566">
        <ele>107.32</ele>
        <time>2017-02-21T10:26:35Z</time>
      </trkpt>
      <trkpt lat="48.59205" lon="1.96571">
        <ele>108.29</ele>
        <time>2017-02-21T10:26:38Z</time>
      </trkpt>
      <trkpt lat="48.59201" lon="1.96579">
        <ele>107.32</ele>
        <time>2017-02-21T10:26:49Z</time>
      </trkpt>
      <trkpt lat="48.59193" lon="1.96595">
        <ele>107.81</ele>
        <time>2017-02-21T10:26:58Z</time>
      </trkpt>
      <trkpt lat="48.59187" lon="1.96609">
        <ele>107.32</ele>
        <time>2017-02-21T10:27:08Z</time>
      </trkpt>
      <trkpt lat="48.59188" lon="1.96609">
        <ele>108.29</ele>
        <time>2017-02-21T10:27:21Z</time>
      </trkpt>
      <trkpt lat="48.59185" lon="1.96608">
        <ele>107.81</ele>
        <time>2017-02-21T10:27:36Z</time>
      </trkpt>
    </trkseg>
  </trk>
</gpx>